﻿<?xml version="1.0" encoding="utf-8"?><gpx creator="Garmin Desktop App" version="1.1" xsi:schemaLocation="http://www.topografix.com/GPX/1/1 http://www.topografix.com/GPX/1/1/gpx.xsd http://www.garmin.com/xmlschemas/WaypointExtension/v1 http://www8.garmin.com/xmlschemas/WaypointExtensionv1.xsd http://www.garmin.com/xmlschemas/TrackPointExtension/v1 http://www.garmin.com/xmlschemas/TrackPointExtensionv1.xsd http://www.garmin.com/xmlschemas/GpxExtensions/v3 http://www8.garmin.com/xmlschemas/GpxExtensionsv3.xsd http://www.garmin.com/xmlschemas/ActivityExtension/v1 http://www8.garmin.com/xmlschemas/ActivityExtensionv1.xsd http://www.garmin.com/xmlschemas/AdventuresExtensions/v1 http://www8.garmin.com/xmlschemas/AdventuresExtensionv1.xsd http://www.garmin.com/xmlschemas/PressureExtension/v1 http://www.garmin.com/xmlschemas/PressureExtensionv1.xsd http://www.garmin.com/xmlschemas/TripExtensions/v1 http://www.garmin.com/xmlschemas/TripExtensionsv1.xsd http://www.garmin.com/xmlschemas/TripMetaDataExtensions/v1 http://www.garmin.com/xmlschemas/TripMetaDataExtensionsv1.xsd http://www.garmin.com/xmlschemas/ViaPointTransportationModeExtensions/v1 http://www.garmin.com/xmlschemas/ViaPointTransportationModeExtensionsv1.xsd http://www.garmin.com/xmlschemas/CreationTimeExtension/v1 http://www.garmin.com/xmlschemas/CreationTimeExtensionsv1.xsd http://www.garmin.com/xmlschemas/AccelerationExtension/v1 http://www.garmin.com/xmlschemas/AccelerationExtensionv1.xsd http://www.garmin.com/xmlschemas/PowerExtension/v1 http://www.garmin.com/xmlschemas/PowerExtensionv1.xsd http://www.garmin.com/xmlschemas/VideoExtension/v1 http://www.garmin.com/xmlschemas/VideoExtensionv1.xsd" xmlns="http://www.topografix.com/GPX/1/1" xmlns:xsi="http://www.w3.org/2001/XMLSchema-instance" xmlns:wptx1="http://www.garmin.com/xmlschemas/WaypointExtension/v1" xmlns:gpxtrx="http://www.garmin.com/xmlschemas/GpxExtensions/v3" xmlns:gpxtpx="http://www.garmin.com/xmlschemas/TrackPointExtension/v1" xmlns:gpxx="http://www.garmin.com/xmlschemas/GpxExtensions/v3" xmlns:trp="http://www.garmin.com/xmlschemas/TripExtensions/v1" xmlns:adv="http://www.garmin.com/xmlschemas/AdventuresExtensions/v1" xmlns:prs="http://www.garmin.com/xmlschemas/PressureExtension/v1" xmlns:tmd="http://www.garmin.com/xmlschemas/TripMetaDataExtensions/v1" xmlns:vptm="http://www.garmin.com/xmlschemas/ViaPointTransportationModeExtensions/v1" xmlns:ctx="http://www.garmin.com/xmlschemas/CreationTimeExtension/v1" xmlns:gpxacc="http://www.garmin.com/xmlschemas/AccelerationExtension/v1" xmlns:gpxpx="http://www.garmin.com/xmlschemas/PowerExtension/v1" xmlns:vidx1="http://www.garmin.com/xmlschemas/VideoExtension/v1">

  <metadata>
    <link href="http://www.garmin.com">
      <text>Garmin International</text>
    </link>
    <time>2024-07-22T16:26:56Z</time>
    <bounds maxlat="50.789989968761802" maxlon="4.465610040351749" minlat="50.694956034421921" minlon="4.27386000752449" />
  </metadata>

  <wpt lat="50.767495706677437" lon="4.454646930098534">
    <ele>84.5234375</ele>
    <time>2023-03-05T19:13:43Z</time>
    <name>Gravelroute Zonienwoud - Hallerbos</name>
    <cmt>Gravelroute Zonienwoud - Hallerbos</cmt>
    <desc>Gravelroute Zonienwoud - Hallerbos</desc>
    <sym>Flag, Blue</sym>
    <type>user</type>
    <extensions>
      <gpxx:WaypointExtension>
        <gpxx:DisplayMode>SymbolAndName</gpxx:DisplayMode>
      </gpxx:WaypointExtension>
      <wptx1:WaypointExtension>
        <wptx1:DisplayMode>SymbolAndName</wptx1:DisplayMode>
      </wptx1:WaypointExtension>
      <ctx:CreationTimeExtension>
        <ctx:CreationTime>2023-03-05T19:13:43Z</ctx:CreationTime>
      </ctx:CreationTimeExtension>
    </extensions>
  </wpt>

  <trk>
    <name>Zonienwoud-Hallerbos-75km-840hm</name>
    <desc>Gravelroute Zonienwoud - Hallerbos</desc>
    <link href="https://gravelroutedatabase.be/" />
    <extensions>
      <gpxx:TrackExtension>
        <gpxx:DisplayColor>Blue</gpxx:DisplayColor>
      </gpxx:TrackExtension>
    </extensions>
    <trkseg>
      <trkpt lat="50.76746603474021" lon="4.454567972570658">
        <ele>81.700000000000003</ele>
        <time>1970-01-01T00:00:00Z</time>
      </trkpt>
      <trkpt lat="50.76749000698328" lon="4.454387007281184">
        <ele>82.700000000000003</ele>
        <time>1970-01-01T00:00:09Z</time>
      </trkpt>
      <trkpt lat="50.767439967021346" lon="4.454042008146644">
        <ele>84.299999999999997</ele>
        <time>1970-01-01T00:00:16Z</time>
      </trkpt>
      <trkpt lat="50.767031013965607" lon="4.452590011060238">
        <ele>89.700000000000003</ele>
        <time>1970-01-01T00:00:44Z</time>
      </trkpt>
      <trkpt lat="50.7663509901613" lon="4.450756972655654">
        <ele>95.400000000000006</ele>
        <time>1970-01-01T00:01:14Z</time>
      </trkpt>
      <trkpt lat="50.766335986554623" lon="4.450507024303079">
        <ele>96.099999999999994</ele>
        <time>1970-01-01T00:01:25Z</time>
      </trkpt>
      <trkpt lat="50.766010014340281" lon="4.449657015502453">
        <ele>97.700000000000003</ele>
        <time>1970-01-01T00:01:38Z</time>
      </trkpt>
      <trkpt lat="50.765929967164993" lon="4.449164997786284">
        <ele>98.700000000000003</ele>
        <time>1970-01-01T00:01:45Z</time>
      </trkpt>
      <trkpt lat="50.765502993017435" lon="4.448024975135922">
        <ele>102.7</ele>
        <time>1970-01-01T00:02:12Z</time>
      </trkpt>
      <trkpt lat="50.765200993046165" lon="4.44769699126482">
        <ele>106.2</ele>
        <time>1970-01-01T00:02:34Z</time>
      </trkpt>
      <trkpt lat="50.764700006693602" lon="4.448133017867804">
        <ele>105.90000000000001</ele>
        <time>1970-01-01T00:05:19Z</time>
      </trkpt>
      <trkpt lat="50.764380991458893" lon="4.44859704002738">
        <ele>104.2</ele>
        <time>1970-01-01T00:05:27Z</time>
      </trkpt>
      <trkpt lat="50.764175970107317" lon="4.449460040777922">
        <ele>101.2</ele>
        <time>1970-01-01T00:05:42Z</time>
      </trkpt>
      <trkpt lat="50.764040015637875" lon="4.449657015502453">
        <ele>99.099999999999994</ele>
        <time>1970-01-01T00:05:48Z</time>
      </trkpt>
      <trkpt lat="50.763795012608171" lon="4.449657015502453">
        <ele>94.599999999999994</ele>
        <time>1970-01-01T00:05:53Z</time>
      </trkpt>
      <trkpt lat="50.763330990448594" lon="4.449310004711151">
        <ele>90.799999999999997</ele>
        <time>1970-01-01T00:06:02Z</time>
      </trkpt>
      <trkpt lat="50.763302994892001" lon="4.449690040200949">
        <ele>92.700000000000003</ele>
        <time>1970-01-01T00:06:10Z</time>
      </trkpt>
      <trkpt lat="50.763425035402179" lon="4.450158001855016">
        <ele>94.400000000000006</ele>
        <time>1970-01-01T00:06:21Z</time>
      </trkpt>
      <trkpt lat="50.763382958248258" lon="4.450409961864352">
        <ele>95.099999999999994</ele>
        <time>1970-01-01T00:06:28Z</time>
      </trkpt>
      <trkpt lat="50.763165028765798" lon="4.450535019859672">
        <ele>95.099999999999994</ele>
        <time>1970-01-01T00:06:38Z</time>
      </trkpt>
      <trkpt lat="50.762918014079332" lon="4.450563015416265">
        <ele>94.700000000000003</ele>
        <time>1970-01-01T00:06:46Z</time>
      </trkpt>
      <trkpt lat="50.762405041605234" lon="4.451257036998868">
        <ele>91.5</ele>
        <time>1970-01-01T00:06:56Z</time>
      </trkpt>
      <trkpt lat="50.762283001095057" lon="4.451338006183505">
        <ele>91.400000000000006</ele>
        <time>1970-01-01T00:06:58Z</time>
      </trkpt>
      <trkpt lat="50.762002961710095" lon="4.451310010626912">
        <ele>91.900000000000006</ele>
        <time>1970-01-01T00:07:04Z</time>
      </trkpt>
      <trkpt lat="50.76186097227037" lon="4.451387962326407">
        <ele>91.599999999999994</ele>
        <time>1970-01-01T00:07:08Z</time>
      </trkpt>
      <trkpt lat="50.761513039469719" lon="4.451847039163113">
        <ele>90.200000000000003</ele>
        <time>1970-01-01T00:07:16Z</time>
      </trkpt>
      <trkpt lat="50.761250015348196" lon="4.45201501250267">
        <ele>91</ele>
        <time>1970-01-01T00:07:21Z</time>
      </trkpt>
      <trkpt lat="50.761023033410311" lon="4.452266972512007">
        <ele>91.200000000000003</ele>
        <time>1970-01-01T00:07:26Z</time>
      </trkpt>
      <trkpt lat="50.760846007615328" lon="4.452941967174411">
        <ele>91.5</ele>
        <time>1970-01-01T00:07:33Z</time>
      </trkpt>
      <trkpt lat="50.760480975732207" lon="4.453891972079873">
        <ele>93.400000000000006</ele>
        <time>1970-01-01T00:07:47Z</time>
      </trkpt>
      <trkpt lat="50.760390032082796" lon="4.454027004539967">
        <ele>93.900000000000006</ele>
        <time>1970-01-01T00:07:50Z</time>
      </trkpt>
      <trkpt lat="50.760215017944574" lon="4.454581970348954">
        <ele>95.799999999999997</ele>
        <time>1970-01-01T00:08:00Z</time>
      </trkpt>
      <trkpt lat="50.759662985801697" lon="4.455007016658783">
        <ele>95.900000000000006</ele>
        <time>1970-01-01T00:08:11Z</time>
      </trkpt>
      <trkpt lat="50.759532982483506" lon="4.455014979466796">
        <ele>95.599999999999994</ele>
        <time>1970-01-01T00:08:13Z</time>
      </trkpt>
      <trkpt lat="50.759158981963992" lon="4.454778023064137">
        <ele>94.900000000000006</ele>
        <time>1970-01-01T00:08:19Z</time>
      </trkpt>
      <trkpt lat="50.758688002824783" lon="4.454067992046475">
        <ele>95.400000000000006</ele>
        <time>1970-01-01T00:08:30Z</time>
      </trkpt>
      <trkpt lat="50.757878981530666" lon="4.453041963279247">
        <ele>96.400000000000006</ele>
        <time>1970-01-01T00:08:47Z</time>
      </trkpt>
      <trkpt lat="50.757530964910984" lon="4.45276502519846">
        <ele>96.799999999999997</ele>
        <time>1970-01-01T00:08:54Z</time>
      </trkpt>
      <trkpt lat="50.756090031936765" lon="4.452048037201166">
        <ele>99.400000000000006</ele>
        <time>1970-01-01T00:09:19Z</time>
      </trkpt>
      <trkpt lat="50.754743982106447" lon="4.451487036421895">
        <ele>101.8</ele>
        <time>1970-01-01T00:09:48Z</time>
      </trkpt>
      <trkpt lat="50.753920963034034" lon="4.449712000787258">
        <ele>105.7</ele>
        <time>1970-01-01T00:10:18Z</time>
      </trkpt>
      <trkpt lat="50.753622986376286" lon="4.448801977559924">
        <ele>107.2</ele>
        <time>1970-01-01T00:10:31Z</time>
      </trkpt>
      <trkpt lat="50.752918990328908" lon="4.446946978569031">
        <ele>107.7</ele>
        <time>1970-01-01T00:10:56Z</time>
      </trkpt>
      <trkpt lat="50.752265034243464" lon="4.44556999951601">
        <ele>108.59999999999999</ele>
        <time>1970-01-01T00:11:15Z</time>
      </trkpt>
      <trkpt lat="50.75180503539741" lon="4.444787967950106">
        <ele>109.59999999999999</ele>
        <time>1970-01-01T00:11:29Z</time>
      </trkpt>
      <trkpt lat="50.75176103040576" lon="4.444499965757132">
        <ele>110.59999999999999</ele>
        <time>1970-01-01T00:11:34Z</time>
      </trkpt>
      <trkpt lat="50.751834958791733" lon="4.444262003526092">
        <ele>111.59999999999999</ele>
        <time>1970-01-01T00:11:39Z</time>
      </trkpt>
      <trkpt lat="50.751876030117273" lon="4.443905018270016">
        <ele>113.5</ele>
        <time>1970-01-01T00:11:45Z</time>
      </trkpt>
      <trkpt lat="50.751865971833467" lon="4.443452982231975">
        <ele>115.40000000000001</ele>
        <time>1970-01-01T00:11:51Z</time>
      </trkpt>
      <trkpt lat="50.751975020393729" lon="4.442487973719835">
        <ele>118.2</ele>
        <time>1970-01-01T00:12:09Z</time>
      </trkpt>
      <trkpt lat="50.752050960436463" lon="4.442156972363591">
        <ele>119.2</ele>
        <time>1970-01-01T00:12:16Z</time>
      </trkpt>
      <trkpt lat="50.752208037301898" lon="4.441886991262436">
        <ele>120.2</ele>
        <time>1970-01-01T00:12:19Z</time>
      </trkpt>
      <trkpt lat="50.752451028674841" lon="4.440607996657491">
        <ele>124.59999999999999</ele>
        <time>1970-01-01T00:12:42Z</time>
      </trkpt>
      <trkpt lat="50.752872973680496" lon="4.439158011227846">
        <ele>127.5</ele>
        <time>1970-01-01T00:13:05Z</time>
      </trkpt>
      <trkpt lat="50.752710029482841" lon="4.438458038493991">
        <ele>127.90000000000001</ele>
        <time>1970-01-01T00:13:17Z</time>
      </trkpt>
      <trkpt lat="50.752355977892876" lon="4.437507027760148">
        <ele>127.40000000000001</ele>
        <time>1970-01-01T00:13:30Z</time>
      </trkpt>
      <trkpt lat="50.752013996243477" lon="4.436981985345483">
        <ele>127.3</ele>
        <time>1970-01-01T00:13:37Z</time>
      </trkpt>
      <trkpt lat="50.751997986808419" lon="4.436232978478074">
        <ele>127.2</ele>
        <time>1970-01-01T00:13:45Z</time>
      </trkpt>
      <trkpt lat="50.751868989318609" lon="4.435797035694122">
        <ele>126.90000000000001</ele>
        <time>1970-01-01T00:13:50Z</time>
      </trkpt>
      <trkpt lat="50.751708978787065" lon="4.435520013794303">
        <ele>126.8</ele>
        <time>1970-01-01T00:13:54Z</time>
      </trkpt>
      <trkpt lat="50.75163597241044" lon="4.434984996914864">
        <ele>126.7</ele>
        <time>1970-01-01T00:14:00Z</time>
      </trkpt>
      <trkpt lat="50.750366030260921" lon="4.43416197784245">
        <ele>126.7</ele>
        <time>1970-01-01T00:14:22Z</time>
      </trkpt>
      <trkpt lat="50.749645018950105" lon="4.4337950181216">
        <ele>127.40000000000001</ele>
        <time>1970-01-01T00:14:35Z</time>
      </trkpt>
      <trkpt lat="50.747801000252366" lon="4.433212978765369">
        <ele>131.59999999999999</ele>
        <time>1970-01-01T00:15:11Z</time>
      </trkpt>
      <trkpt lat="50.747255003079772" lon="4.433211972936988">
        <ele>133.09999999999999</ele>
        <time>1970-01-01T00:15:24Z</time>
      </trkpt>
      <trkpt lat="50.746828028932214" lon="4.433090016245842">
        <ele>133.09999999999999</ele>
        <time>1970-01-01T00:15:37Z</time>
      </trkpt>
      <trkpt lat="50.745201017707586" lon="4.432230032980442">
        <ele>132.30000000000001</ele>
        <time>1970-01-01T00:17:39Z</time>
      </trkpt>
      <trkpt lat="50.744629958644509" lon="4.432025011628866">
        <ele>131.59999999999999</ele>
        <time>1970-01-01T00:17:48Z</time>
      </trkpt>
      <trkpt lat="50.744129978120327" lon="4.431934989988804">
        <ele>131.30000000000001</ele>
        <time>1970-01-01T00:17:57Z</time>
      </trkpt>
      <trkpt lat="50.743130017071962" lon="4.43147499114275">
        <ele>131.19999999999999</ele>
        <time>1970-01-01T00:18:14Z</time>
      </trkpt>
      <trkpt lat="50.743003031238914" lon="4.431335013359785">
        <ele>131.30000000000001</ele>
        <time>1970-01-01T00:18:17Z</time>
      </trkpt>
      <trkpt lat="50.742928013205528" lon="4.431117000058293">
        <ele>131.19999999999999</ele>
        <time>1970-01-01T00:18:20Z</time>
      </trkpt>
      <trkpt lat="50.742435995489359" lon="4.430319964885712">
        <ele>131.09999999999999</ele>
        <time>1970-01-01T00:18:33Z</time>
      </trkpt>
      <trkpt lat="50.742072975263" lon="4.429612029343844">
        <ele>129.59999999999999</ele>
        <time>1970-01-01T00:18:43Z</time>
      </trkpt>
      <trkpt lat="50.741490013897419" lon="4.428880037739873">
        <ele>126.59999999999999</ele>
        <time>1970-01-01T00:18:53Z</time>
      </trkpt>
      <trkpt lat="50.741221038624644" lon="4.428656995296478">
        <ele>126</ele>
        <time>1970-01-01T00:18:57Z</time>
      </trkpt>
      <trkpt lat="50.740493992343545" lon="4.428333034738898">
        <ele>125.3</ele>
        <time>1970-01-01T00:19:08Z</time>
      </trkpt>
      <trkpt lat="50.740205990150571" lon="4.428087025880814">
        <ele>125.2</ele>
        <time>1970-01-01T00:19:13Z</time>
      </trkpt>
      <trkpt lat="50.739853028208017" lon="4.427555026486516">
        <ele>123.40000000000001</ele>
        <time>1970-01-01T00:19:20Z</time>
      </trkpt>
      <trkpt lat="50.73940996080637" lon="4.426690014079213">
        <ele>119.3</ele>
        <time>1970-01-01T00:19:28Z</time>
      </trkpt>
      <trkpt lat="50.739061022177339" lon="4.426263039931655">
        <ele>117</ele>
        <time>1970-01-01T00:19:36Z</time>
      </trkpt>
      <trkpt lat="50.738975023850799" lon="4.426049971953034">
        <ele>115.3</ele>
        <time>1970-01-01T00:19:42Z</time>
      </trkpt>
      <trkpt lat="50.738918026909232" lon="4.426033040508628">
        <ele>113.09999999999999</ele>
        <time>1970-01-01T00:19:45Z</time>
      </trkpt>
      <trkpt lat="50.73880503885448" lon="4.426541989669204">
        <ele>112.40000000000001</ele>
        <time>1970-01-01T00:19:52Z</time>
      </trkpt>
      <trkpt lat="50.73859297670424" lon="4.428164977580309">
        <ele>109.5</ele>
        <time>1970-01-01T00:20:08Z</time>
      </trkpt>
      <trkpt lat="50.738432966172695" lon="4.430424990132451">
        <ele>108.2</ele>
        <time>1970-01-01T00:20:32Z</time>
      </trkpt>
      <trkpt lat="50.73906596750021" lon="4.431943036615849">
        <ele>107.59999999999999</ele>
        <time>1970-01-01T00:20:53Z</time>
      </trkpt>
      <trkpt lat="50.739133022725582" lon="4.432204971089959">
        <ele>108</ele>
        <time>1970-01-01T00:20:57Z</time>
      </trkpt>
      <trkpt lat="50.740187969058752" lon="4.43471996113658">
        <ele>110.8</ele>
        <time>1970-01-01T00:22:13Z</time>
      </trkpt>
      <trkpt lat="50.740649979561567" lon="4.435998033732176">
        <ele>112.7</ele>
        <time>1970-01-01T00:22:30Z</time>
      </trkpt>
      <trkpt lat="50.741265965625644" lon="4.437299994751811">
        <ele>119.40000000000001</ele>
        <time>1970-01-01T00:22:55Z</time>
      </trkpt>
      <trkpt lat="50.741345006972551" lon="4.437797041609883">
        <ele>120.40000000000001</ele>
        <time>1970-01-01T00:23:02Z</time>
      </trkpt>
      <trkpt lat="50.741823026910424" lon="4.438809994608164">
        <ele>121.7</ele>
        <time>1970-01-01T00:23:19Z</time>
      </trkpt>
      <trkpt lat="50.743475016206503" lon="4.441482983529568">
        <ele>124.3</ele>
        <time>1970-01-01T00:24:05Z</time>
      </trkpt>
      <trkpt lat="50.743866031989455" lon="4.442292004823685">
        <ele>126.2</ele>
        <time>1970-01-01T00:24:16Z</time>
      </trkpt>
      <trkpt lat="50.743818003684282" lon="4.442470036447048">
        <ele>126.2</ele>
        <time>1970-01-01T00:24:19Z</time>
      </trkpt>
      <trkpt lat="50.742977969348431" lon="4.443745007738471">
        <ele>125.7</ele>
        <time>1970-01-01T00:24:41Z</time>
      </trkpt>
      <trkpt lat="50.742735983803868" lon="4.44419695995748">
        <ele>125.2</ele>
        <time>1970-01-01T00:24:47Z</time>
      </trkpt>
      <trkpt lat="50.742123015224934" lon="4.445088040083647">
        <ele>123.8</ele>
        <time>1970-01-01T00:25:02Z</time>
      </trkpt>
      <trkpt lat="50.741393035277724" lon="4.446338033303618">
        <ele>122.09999999999999</ele>
        <time>1970-01-01T00:25:21Z</time>
      </trkpt>
      <trkpt lat="50.74071804061532" lon="4.447658015415072">
        <ele>118.90000000000001</ele>
        <time>1970-01-01T00:25:39Z</time>
      </trkpt>
      <trkpt lat="50.739917987957597" lon="4.448942961171269">
        <ele>118.40000000000001</ele>
        <time>1970-01-01T00:25:57Z</time>
      </trkpt>
      <trkpt lat="50.739458994939923" lon="4.449794981628656">
        <ele>117.40000000000001</ele>
        <time>1970-01-01T00:26:10Z</time>
      </trkpt>
      <trkpt lat="50.737844975665212" lon="4.452318018302321">
        <ele>104.3</ele>
        <time>1970-01-01T00:26:42Z</time>
      </trkpt>
      <trkpt lat="50.73756099678576" lon="4.452856974676251">
        <ele>101.5</ele>
        <time>1970-01-01T00:26:49Z</time>
      </trkpt>
      <trkpt lat="50.737016005441546" lon="4.454335039481521">
        <ele>98.5</ele>
        <time>1970-01-01T00:27:08Z</time>
      </trkpt>
      <trkpt lat="50.735072996467352" lon="4.459163015708327">
        <ele>91.5</ele>
        <time>1970-01-01T00:28:10Z</time>
      </trkpt>
      <trkpt lat="50.734635964035988" lon="4.459819989278913">
        <ele>91.700000000000003</ele>
        <time>1970-01-01T00:28:20Z</time>
      </trkpt>
      <trkpt lat="50.734452987089753" lon="4.459912022575736">
        <ele>91.700000000000003</ele>
        <time>1970-01-01T00:28:23Z</time>
      </trkpt>
      <trkpt lat="50.733875976875424" lon="4.45985795930028">
        <ele>91.299999999999997</ele>
        <time>1970-01-01T00:28:34Z</time>
      </trkpt>
      <trkpt lat="50.733726024627686" lon="4.459929959848523">
        <ele>91</ele>
        <time>1970-01-01T00:28:37Z</time>
      </trkpt>
      <trkpt lat="50.73352100327611" lon="4.460183009505272">
        <ele>89.700000000000003</ele>
        <time>1970-01-01T00:28:42Z</time>
      </trkpt>
      <trkpt lat="50.733403991907835" lon="4.460515016689897">
        <ele>88</ele>
        <time>1970-01-01T00:28:47Z</time>
      </trkpt>
      <trkpt lat="50.733276000246406" lon="4.461623020470142">
        <ele>82.200000000000003</ele>
        <time>1970-01-01T00:28:59Z</time>
      </trkpt>
      <trkpt lat="50.733268037438393" lon="4.46211202070117">
        <ele>80.400000000000006</ele>
        <time>1970-01-01T00:29:03Z</time>
      </trkpt>
      <trkpt lat="50.733358981087804" lon="4.46282297372818">
        <ele>78.599999999999994</ele>
        <time>1970-01-01T00:29:09Z</time>
      </trkpt>
      <trkpt lat="50.733640026301146" lon="4.464053018018603">
        <ele>76.299999999999997</ele>
        <time>1970-01-01T00:29:21Z</time>
      </trkpt>
      <trkpt lat="50.734222987666726" lon="4.465522030368447">
        <ele>73.200000000000003</ele>
        <time>1970-01-01T00:29:37Z</time>
      </trkpt>
      <trkpt lat="50.734201027080417" lon="4.465610040351749">
        <ele>73</ele>
        <time>1970-01-01T00:29:39Z</time>
      </trkpt>
      <trkpt lat="50.733223026618361" lon="4.464462976902723">
        <ele>71.400000000000006</ele>
        <time>1970-01-01T00:30:00Z</time>
      </trkpt>
      <trkpt lat="50.733046000823379" lon="4.46398202329874">
        <ele>72</ele>
        <time>1970-01-01T00:30:06Z</time>
      </trkpt>
      <trkpt lat="50.732583990320563" lon="4.461671970784664">
        <ele>77</ele>
        <time>1970-01-01T00:30:36Z</time>
      </trkpt>
      <trkpt lat="50.732558006420732" lon="4.461257988587022">
        <ele>78.400000000000006</ele>
        <time>1970-01-01T00:30:43Z</time>
      </trkpt>
      <trkpt lat="50.732633024454117" lon="4.460858004167676">
        <ele>80.099999999999994</ele>
        <time>1970-01-01T00:30:51Z</time>
      </trkpt>
      <trkpt lat="50.732698990032077" lon="4.460730012506247">
        <ele>80.700000000000003</ele>
        <time>1970-01-01T00:30:55Z</time>
      </trkpt>
      <trkpt lat="50.732703013345599" lon="4.460134981200099">
        <ele>81.799999999999997</ele>
        <time>1970-01-01T00:31:11Z</time>
      </trkpt>
      <trkpt lat="50.732276039198041" lon="4.457655027508736">
        <ele>72.799999999999997</ele>
        <time>1970-01-01T00:31:51Z</time>
      </trkpt>
      <trkpt lat="50.732292970642447" lon="4.457527035847306">
        <ele>73.299999999999997</ele>
        <time>1970-01-01T00:31:55Z</time>
      </trkpt>
      <trkpt lat="50.732488017529249" lon="4.457471966743469">
        <ele>73.900000000000006</ele>
        <time>1970-01-01T00:32:06Z</time>
      </trkpt>
      <trkpt lat="50.732350973412395" lon="4.457570035010576">
        <ele>73.5</ele>
        <time>1970-01-01T00:32:13Z</time>
      </trkpt>
      <trkpt lat="50.73223102837801" lon="4.457462998107076">
        <ele>72.700000000000003</ele>
        <time>1970-01-01T00:32:17Z</time>
      </trkpt>
      <trkpt lat="50.73197303339839" lon="4.456176962703466">
        <ele>72.799999999999997</ele>
        <time>1970-01-01T00:32:35Z</time>
      </trkpt>
      <trkpt lat="50.731475986540318" lon="4.453014973551035">
        <ele>83.599999999999994</ele>
        <time>1970-01-01T00:33:30Z</time>
      </trkpt>
      <trkpt lat="50.731081031262875" lon="4.451540010049939">
        <ele>85.900000000000006</ele>
        <time>1970-01-01T00:34:01Z</time>
      </trkpt>
      <trkpt lat="50.731613030657172" lon="4.451915016397834">
        <ele>81.599999999999994</ele>
        <time>1970-01-01T00:34:17Z</time>
      </trkpt>
      <trkpt lat="50.731983007863164" lon="4.452752033248544">
        <ele>76.5</ele>
        <time>1970-01-01T00:34:31Z</time>
      </trkpt>
      <trkpt lat="50.732397995889187" lon="4.453171966597438">
        <ele>76.200000000000003</ele>
        <time>1970-01-01T00:34:42Z</time>
      </trkpt>
      <trkpt lat="50.732518024742603" lon="4.453208008781076">
        <ele>76.900000000000006</ele>
        <time>1970-01-01T00:34:45Z</time>
      </trkpt>
      <trkpt lat="50.732440995052457" lon="4.452822022140026">
        <ele>76.599999999999994</ele>
        <time>1970-01-01T00:34:51Z</time>
      </trkpt>
      <trkpt lat="50.73244602419436" lon="4.452288011088967">
        <ele>76.799999999999997</ele>
        <time>1970-01-01T00:34:59Z</time>
      </trkpt>
      <trkpt lat="50.732905017212033" lon="4.449819959700108">
        <ele>77.200000000000003</ele>
        <time>1970-01-01T00:35:29Z</time>
      </trkpt>
      <trkpt lat="50.733330985531211" lon="4.448175011202693">
        <ele>77</ele>
        <time>1970-01-01T00:35:50Z</time>
      </trkpt>
      <trkpt lat="50.733484961092472" lon="4.447837974876165">
        <ele>77.400000000000006</ele>
        <time>1970-01-01T00:35:55Z</time>
      </trkpt>
      <trkpt lat="50.733947977423668" lon="4.44737202487886">
        <ele>78.099999999999994</ele>
        <time>1970-01-01T00:36:05Z</time>
      </trkpt>
      <trkpt lat="50.734237991273403" lon="4.446697030216456">
        <ele>79</ele>
        <time>1970-01-01T00:36:15Z</time>
      </trkpt>
      <trkpt lat="50.734367994591594" lon="4.446241976693273">
        <ele>79.5</ele>
        <time>1970-01-01T00:36:21Z</time>
      </trkpt>
      <trkpt lat="50.734360031783581" lon="4.44608498364687">
        <ele>79.599999999999994</ele>
        <time>1970-01-01T00:36:23Z</time>
      </trkpt>
      <trkpt lat="50.733981002122164" lon="4.444953007623553">
        <ele>80.799999999999997</ele>
        <time>1970-01-01T00:36:40Z</time>
      </trkpt>
      <trkpt lat="50.733540030196309" lon="4.44415002129972">
        <ele>81.400000000000006</ele>
        <time>1970-01-01T00:36:52Z</time>
      </trkpt>
      <trkpt lat="50.732751041650772" lon="4.443302024155855">
        <ele>81.599999999999994</ele>
        <time>1970-01-01T00:37:11Z</time>
      </trkpt>
      <trkpt lat="50.732434960082173" lon="4.442725013941526">
        <ele>82.099999999999994</ele>
        <time>1970-01-01T00:37:21Z</time>
      </trkpt>
      <trkpt lat="50.732416016981006" lon="4.442414967343211">
        <ele>82.400000000000006</ele>
        <time>1970-01-01T00:37:25Z</time>
      </trkpt>
      <trkpt lat="50.732516013085842" lon="4.441871987655759">
        <ele>83.400000000000006</ele>
        <time>1970-01-01T00:37:33Z</time>
      </trkpt>
      <trkpt lat="50.732735032215714" lon="4.441197998821735">
        <ele>84.599999999999994</ele>
        <time>1970-01-01T00:37:45Z</time>
      </trkpt>
      <trkpt lat="50.733102997764945" lon="4.440866997465491">
        <ele>84.799999999999997</ele>
        <time>1970-01-01T00:37:54Z</time>
      </trkpt>
      <trkpt lat="50.73388502933085" lon="4.440376991406083">
        <ele>85.799999999999997</ele>
        <time>1970-01-01T00:38:12Z</time>
      </trkpt>
      <trkpt lat="50.73414302431047" lon="4.44011296145618">
        <ele>86.299999999999997</ele>
        <time>1970-01-01T00:38:19Z</time>
      </trkpt>
      <trkpt lat="50.735095040872693" lon="4.439462022855878">
        <ele>87.900000000000006</ele>
        <time>1970-01-01T00:38:39Z</time>
      </trkpt>
      <trkpt lat="50.735458983108401" lon="4.439139990136027">
        <ele>88.700000000000003</ele>
        <time>1970-01-01T00:38:47Z</time>
      </trkpt>
      <trkpt lat="50.736345034092665" lon="4.43811496719718">
        <ele>91.5</ele>
        <time>1970-01-01T00:39:08Z</time>
      </trkpt>
      <trkpt lat="50.736590037122369" lon="4.438046989962459">
        <ele>92.400000000000006</ele>
        <time>1970-01-01T00:39:14Z</time>
      </trkpt>
      <trkpt lat="50.737073002383113" lon="4.438185039907694">
        <ele>93.5</ele>
        <time>1970-01-01T00:39:26Z</time>
      </trkpt>
      <trkpt lat="50.737533001229167" lon="4.438170036301017">
        <ele>94</ele>
        <time>1970-01-01T00:39:36Z</time>
      </trkpt>
      <trkpt lat="50.73807799257338" lon="4.437912963330746">
        <ele>94.900000000000006</ele>
        <time>1970-01-01T00:39:47Z</time>
      </trkpt>
      <trkpt lat="50.738579984754324" lon="4.437582967802882">
        <ele>96</ele>
        <time>1970-01-01T00:39:55Z</time>
      </trkpt>
      <trkpt lat="50.738825993612409" lon="4.437282979488373">
        <ele>96.099999999999994</ele>
        <time>1970-01-01T00:40:04Z</time>
      </trkpt>
      <trkpt lat="50.738680986687541" lon="4.437493029981852">
        <ele>96</ele>
        <time>1970-01-01T00:40:11Z</time>
      </trkpt>
      <trkpt lat="50.738623989745975" lon="4.437477020546794">
        <ele>96</ele>
        <time>1970-01-01T00:40:13Z</time>
      </trkpt>
      <trkpt lat="50.738618038594723" lon="4.437148030847311">
        <ele>97</ele>
        <time>1970-01-01T00:40:30Z</time>
      </trkpt>
      <trkpt lat="50.738797998055816" lon="4.436766989529133">
        <ele>99.5</ele>
        <time>1970-01-01T00:40:49Z</time>
      </trkpt>
      <trkpt lat="50.738876033574343" lon="4.435798041522503">
        <ele>105</ele>
        <time>1970-01-01T00:41:11Z</time>
      </trkpt>
      <trkpt lat="50.738813001662493" lon="4.435567036271095">
        <ele>106.2</ele>
        <time>1970-01-01T00:41:15Z</time>
      </trkpt>
      <trkpt lat="50.738876033574343" lon="4.434941997751594">
        <ele>108.5</ele>
        <time>1970-01-01T00:41:31Z</time>
      </trkpt>
      <trkpt lat="50.738733038306236" lon="4.43407497368753">
        <ele>109.90000000000001</ele>
        <time>1970-01-01T00:41:45Z</time>
      </trkpt>
      <trkpt lat="50.738534973934293" lon="4.433587985113263">
        <ele>110.8</ele>
        <time>1970-01-01T00:41:55Z</time>
      </trkpt>
      <trkpt lat="50.738455010578036" lon="4.433163022622466">
        <ele>111.5</ele>
        <time>1970-01-01T00:42:02Z</time>
      </trkpt>
      <trkpt lat="50.738458028063178" lon="4.432873008772731">
        <ele>112.09999999999999</ele>
        <time>1970-01-01T00:42:07Z</time>
      </trkpt>
      <trkpt lat="50.738390972837806" lon="4.432504959404469">
        <ele>113</ele>
        <time>1970-01-01T00:42:12Z</time>
      </trkpt>
      <trkpt lat="50.738200033083558" lon="4.431898025795817">
        <ele>114.7</ele>
        <time>1970-01-01T00:42:23Z</time>
      </trkpt>
      <trkpt lat="50.738081010058522" lon="4.431757964193821">
        <ele>115.40000000000001</ele>
        <time>1970-01-01T00:42:26Z</time>
      </trkpt>
      <trkpt lat="50.737859979271889" lon="4.431184977293015">
        <ele>117.2</ele>
        <time>1970-01-01T00:42:37Z</time>
      </trkpt>
      <trkpt lat="50.737523026764393" lon="4.430542001500726">
        <ele>119.09999999999999</ele>
        <time>1970-01-01T00:42:50Z</time>
      </trkpt>
      <trkpt lat="50.736850965768099" lon="4.429885027930141">
        <ele>121.59999999999999</ele>
        <time>1970-01-01T00:43:11Z</time>
      </trkpt>
      <trkpt lat="50.736565981060266" lon="4.429342970252037">
        <ele>122.7</ele>
        <time>1970-01-01T00:43:20Z</time>
      </trkpt>
      <trkpt lat="50.736405970528722" lon="4.427450001239777">
        <ele>125.09999999999999</ele>
        <time>1970-01-01T00:43:47Z</time>
      </trkpt>
      <trkpt lat="50.736470008268952" lon="4.426847007125616">
        <ele>125.5</ele>
        <time>1970-01-01T00:43:56Z</time>
      </trkpt>
      <trkpt lat="50.736023001372814" lon="4.424937022849917">
        <ele>126.59999999999999</ele>
        <time>1970-01-01T00:44:22Z</time>
      </trkpt>
      <trkpt lat="50.735947983339429" lon="4.424445005133748">
        <ele>126.59999999999999</ele>
        <time>1970-01-01T00:44:30Z</time>
      </trkpt>
      <trkpt lat="50.735963992774487" lon="4.424263034015894">
        <ele>126.59999999999999</ele>
        <time>1970-01-01T00:44:33Z</time>
      </trkpt>
      <trkpt lat="50.735985031351447" lon="4.424202013760805">
        <ele>126.8</ele>
        <time>1970-01-01T00:45:02Z</time>
      </trkpt>
      <trkpt lat="50.735925016924739" lon="4.424247024580836">
        <ele>126.59999999999999</ele>
        <time>1970-01-01T00:45:04Z</time>
      </trkpt>
      <trkpt lat="50.735503993928432" lon="4.424133030697703">
        <ele>126.8</ele>
        <time>1970-01-01T00:45:24Z</time>
      </trkpt>
      <trkpt lat="50.732434960082173" lon="4.423937983810902">
        <ele>117.3</ele>
        <time>1970-01-01T00:46:29Z</time>
      </trkpt>
      <trkpt lat="50.732185011729598" lon="4.423875035718083">
        <ele>117</ele>
        <time>1970-01-01T00:46:33Z</time>
      </trkpt>
      <trkpt lat="50.732093984261155" lon="4.423777973279357">
        <ele>116.90000000000001</ele>
        <time>1970-01-01T00:46:35Z</time>
      </trkpt>
      <trkpt lat="50.732004968449473" lon="4.42354797385633">
        <ele>116.5</ele>
        <time>1970-01-01T00:46:39Z</time>
      </trkpt>
      <trkpt lat="50.732204960659146" lon="4.423040030524135">
        <ele>115.3</ele>
        <time>1970-01-01T00:46:49Z</time>
      </trkpt>
      <trkpt lat="50.732805021107197" lon="4.420544989407063">
        <ele>108</ele>
        <time>1970-01-01T00:47:11Z</time>
      </trkpt>
      <trkpt lat="50.733121018856764" lon="4.419992035254836">
        <ele>110.09999999999999</ele>
        <time>1970-01-01T00:47:19Z</time>
      </trkpt>
      <trkpt lat="50.733444979414344" lon="4.419777039438486">
        <ele>113.3</ele>
        <time>1970-01-01T00:47:28Z</time>
      </trkpt>
      <trkpt lat="50.733720995485783" lon="4.419788019731641">
        <ele>115.8</ele>
        <time>1970-01-01T00:47:38Z</time>
      </trkpt>
      <trkpt lat="50.734019977971911" lon="4.419945012778044">
        <ele>118.3</ele>
        <time>1970-01-01T00:47:51Z</time>
      </trkpt>
      <trkpt lat="50.734390961006284" lon="4.420457985252142">
        <ele>121.8</ele>
        <time>1970-01-01T00:48:10Z</time>
      </trkpt>
      <trkpt lat="50.734543008729815" lon="4.42055999301374">
        <ele>122.40000000000001</ele>
        <time>1970-01-01T00:48:17Z</time>
      </trkpt>
      <trkpt lat="50.734650967642665" lon="4.420722015202045">
        <ele>123</ele>
        <time>1970-01-01T00:48:24Z</time>
      </trkpt>
      <trkpt lat="50.734586007893085" lon="4.420402999967337">
        <ele>121.7</ele>
        <time>1970-01-01T00:49:52Z</time>
      </trkpt>
      <trkpt lat="50.734275039285421" lon="4.419820038601756">
        <ele>119.8</ele>
        <time>1970-01-01T00:49:59Z</time>
      </trkpt>
      <trkpt lat="50.733946971595287" lon="4.419358028098941">
        <ele>119.09999999999999</ele>
        <time>1970-01-01T00:50:05Z</time>
      </trkpt>
      <trkpt lat="50.732740983366966" lon="4.416552018374205">
        <ele>120.7</ele>
        <time>1970-01-01T00:50:41Z</time>
      </trkpt>
      <trkpt lat="50.73206297121942" lon="4.414777988567948">
        <ele>113.5</ele>
        <time>1970-01-01T00:51:02Z</time>
      </trkpt>
      <trkpt lat="50.731690982356668" lon="4.414027975872159">
        <ele>110</ele>
        <time>1970-01-01T00:51:13Z</time>
      </trkpt>
      <trkpt lat="50.73126501403749" lon="4.412831962108612">
        <ele>109.90000000000001</ele>
        <time>1970-01-01T00:51:26Z</time>
      </trkpt>
      <trkpt lat="50.730823036283255" lon="4.411853039637208">
        <ele>115.59999999999999</ele>
        <time>1970-01-01T00:51:45Z</time>
      </trkpt>
      <trkpt lat="50.728467972949147" lon="4.406097019091249">
        <ele>126.7</ele>
        <time>1970-01-01T00:53:24Z</time>
      </trkpt>
      <trkpt lat="50.728440983220935" lon="4.40588797442615">
        <ele>126.59999999999999</ele>
        <time>1970-01-01T00:53:27Z</time>
      </trkpt>
      <trkpt lat="50.72907398454845" lon="4.404044961556792">
        <ele>125.7</ele>
        <time>1970-01-01T00:53:50Z</time>
      </trkpt>
      <trkpt lat="50.729213040322065" lon="4.403747990727425">
        <ele>126</ele>
        <time>1970-01-01T00:53:54Z</time>
      </trkpt>
      <trkpt lat="50.729420995339751" lon="4.403060004115105">
        <ele>126.59999999999999</ele>
        <time>1970-01-01T00:54:03Z</time>
      </trkpt>
      <trkpt lat="50.729798013344407" lon="4.402207983657718">
        <ele>127.40000000000001</ele>
        <time>1970-01-01T00:54:15Z</time>
      </trkpt>
      <trkpt lat="50.730194980278611" lon="4.400995038449764">
        <ele>128.40000000000001</ele>
        <time>1970-01-01T00:54:31Z</time>
      </trkpt>
      <trkpt lat="50.730913979932666" lon="4.399125035852194">
        <ele>130.69999999999999</ele>
        <time>1970-01-01T00:54:58Z</time>
      </trkpt>
      <trkpt lat="50.731465006247163" lon="4.397440021857619">
        <ele>131.40000000000001</ele>
        <time>1970-01-01T00:55:19Z</time>
      </trkpt>
      <trkpt lat="50.73216799646616" lon="4.391076983883977">
        <ele>129.19999999999999</ele>
        <time>1970-01-01T00:56:27Z</time>
      </trkpt>
      <trkpt lat="50.732005974277854" lon="4.389788014814258">
        <ele>126.7</ele>
        <time>1970-01-01T00:56:37Z</time>
      </trkpt>
      <trkpt lat="50.731850992888212" lon="4.38803200609982">
        <ele>125.40000000000001</ele>
        <time>1970-01-01T00:56:51Z</time>
      </trkpt>
      <trkpt lat="50.731620993465185" lon="4.386340035125613">
        <ele>124.90000000000001</ele>
        <time>1970-01-01T00:57:06Z</time>
      </trkpt>
      <trkpt lat="50.731210028752685" lon="4.382461979985237">
        <ele>124.2</ele>
        <time>1970-01-01T00:57:43Z</time>
      </trkpt>
      <trkpt lat="50.730970976874232" lon="4.380758022889495">
        <ele>122.7</ele>
        <time>1970-01-01T00:58:01Z</time>
      </trkpt>
      <trkpt lat="50.730376029387116" lon="4.378037005662918">
        <ele>124.3</ele>
        <time>1970-01-01T00:58:32Z</time>
      </trkpt>
      <trkpt lat="50.730333030223846" lon="4.37758999876678">
        <ele>124.2</ele>
        <time>1970-01-01T00:58:37Z</time>
      </trkpt>
      <trkpt lat="50.730134965851903" lon="4.376748036593199">
        <ele>124.2</ele>
        <time>1970-01-01T00:58:48Z</time>
      </trkpt>
      <trkpt lat="50.729937991127372" lon="4.375578006729484">
        <ele>124.59999999999999</ele>
        <time>1970-01-01T00:59:05Z</time>
      </trkpt>
      <trkpt lat="50.729607995599508" lon="4.372415011748672">
        <ele>126.90000000000001</ele>
        <time>1970-01-01T00:59:46Z</time>
      </trkpt>
      <trkpt lat="50.7289884891361" lon="4.369131987914443">
        <ele>122.49609375</ele>
      </trkpt>
      <trkpt lat="50.728166559711099" lon="4.365750225260854">
        <ele>125.046875</ele>
      </trkpt>
      <trkpt lat="50.727700442075729" lon="4.363212184980512">
        <ele>130.61328125</ele>
      </trkpt>
      <trkpt lat="50.727430293336511" lon="4.361386187374592">
        <ele>125.67578125</ele>
      </trkpt>
      <trkpt lat="50.727152684703469" lon="4.359781136736274">
        <ele>122.4609375</ele>
      </trkpt>
      <trkpt lat="50.72708873078227" lon="4.358984939754009">
        <ele>120.8359375</ele>
      </trkpt>
      <trkpt lat="50.726962499320507" lon="4.35858721844852">
        <ele>121.8359375</ele>
      </trkpt>
      <trkpt lat="50.726962080225348" lon="4.358288571238518">
        <ele>121.796875</ele>
      </trkpt>
      <trkpt lat="50.726898964494467" lon="4.358089752495289">
        <ele>122.22265625</ele>
      </trkpt>
      <trkpt lat="50.72750061750412" lon="4.35727721080184">
        <ele>124.34375</ele>
      </trkpt>
      <trkpt lat="50.728343166410923" lon="4.356492329388857">
        <ele>124.73828125</ele>
      </trkpt>
      <trkpt lat="50.728971222415566" lon="4.355893023312092">
        <ele>124.23828125</ele>
      </trkpt>
      <trkpt lat="50.729662142693996" lon="4.355293549597263">
        <ele>120.01171875</ele>
      </trkpt>
      <trkpt lat="50.729850232601166" lon="4.354894738644362">
        <ele>119.03125</ele>
      </trkpt>
      <trkpt lat="50.72997554205358" lon="4.354496179148555">
        <ele>119.61328125</ele>
      </trkpt>
      <trkpt lat="50.731673212721944" lon="4.354391153901815">
        <ele>115.140625</ele>
      </trkpt>
      <trkpt lat="50.732427751645446" lon="4.354388639330864">
        <ele>115.53515625</ele>
      </trkpt>
      <trkpt lat="50.733245071023703" lon="4.354286463931203">
        <ele>114.0546875</ele>
      </trkpt>
      <trkpt lat="50.733873546123505" lon="4.35398580506444">
        <ele>110.27734375</ele>
      </trkpt>
      <trkpt lat="50.734313176944852" lon="4.353586155921221">
        <ele>109.11328125</ele>
      </trkpt>
      <trkpt lat="50.734940059483051" lon="4.352090992033482">
        <ele>108.7421875</ele>
      </trkpt>
      <trkpt lat="50.735755618661642" lon="4.35059524141252">
        <ele>105.56640625</ele>
      </trkpt>
      <trkpt lat="50.736148562282324" lon="4.349868781864643">
        <ele>99.703125</ele>
      </trkpt>
      <trkpt lat="50.73672641068697" lon="4.348240345716476">
        <ele>94.66796875</ele>
      </trkpt>
      <trkpt lat="50.737298475578427" lon="4.347710525617003">
        <ele>88.12890625</ele>
      </trkpt>
      <trkpt lat="50.73712857440114" lon="4.347460996359587">
        <ele>87.9453125</ele>
      </trkpt>
      <trkpt lat="50.73659548535943" lon="4.346435638144612">
        <ele>95.73828125</ele>
      </trkpt>
      <trkpt lat="50.736244870349765" lon="4.345708340406418">
        <ele>101.3671875</ele>
      </trkpt>
      <trkpt lat="50.736460369080305" lon="4.345280108973384">
        <ele>96.65234375</ele>
      </trkpt>
      <trkpt lat="50.735872043296695" lon="4.343427876010537">
        <ele>103.8046875</ele>
      </trkpt>
      <trkpt lat="50.736374203115702" lon="4.342729495838285">
        <ele>101.83984375</ele>
      </trkpt>
      <trkpt lat="50.731843281537294" lon="4.34015616774559">
        <ele>111.36328125</ele>
      </trkpt>
      <trkpt lat="50.731687378138304" lon="4.334845477715135">
        <ele>112.87109375</ele>
      </trkpt>
      <trkpt lat="50.731565421447158" lon="4.333026520907879">
        <ele>113.0390625</ele>
      </trkpt>
      <trkpt lat="50.730958739295602" lon="4.332064026966691">
        <ele>114.6875</ele>
      </trkpt>
      <trkpt lat="50.729509508237243" lon="4.334689071401954">
        <ele>103.3203125</ele>
      </trkpt>
      <trkpt lat="50.729195270687342" lon="4.334789570420981">
        <ele>101.70703125</ele>
      </trkpt>
      <trkpt lat="50.727745452895761" lon="4.332106690853834">
        <ele>104.671875</ele>
      </trkpt>
      <trkpt lat="50.726611381396651" lon="4.330418240278959">
        <ele>102.46484375</ele>
      </trkpt>
      <trkpt lat="50.726106623187661" lon="4.32912583462894">
        <ele>98.1171875</ele>
      </trkpt>
      <trkpt lat="50.725601110607386" lon="4.327236218377948">
        <ele>100.85546875</ele>
      </trkpt>
      <trkpt lat="50.724846152588725" lon="4.326940085738897">
        <ele>90.453125</ele>
      </trkpt>
      <trkpt lat="50.724593438208103" lon="4.326044982299209">
        <ele>88.078125</ele>
      </trkpt>
      <trkpt lat="50.724403923377395" lon="4.325348865240812">
        <ele>84.5703125</ele>
      </trkpt>
      <trkpt lat="50.724088679999113" lon="4.324752660468221">
        <ele>79.30078125</ele>
      </trkpt>
      <trkpt lat="50.723900087177753" lon="4.324753247201443">
        <ele>78.4921875</ele>
      </trkpt>
      <trkpt lat="50.723838899284601" lon="4.32604749687016">
        <ele>79</ele>
      </trkpt>
      <trkpt lat="50.72384032420814" lon="4.327142424881458">
        <ele>77.96875</ele>
      </trkpt>
      <trkpt lat="50.723211765289307" lon="4.327343590557575">
        <ele>73.15234375</ele>
      </trkpt>
      <trkpt lat="50.722708934918046" lon="4.327544253319502">
        <ele>74.9921875</ele>
      </trkpt>
      <trkpt lat="50.72233191691339" lon="4.327744580805302">
        <ele>75.54296875</ele>
      </trkpt>
      <trkpt lat="50.721766641363502" lon="4.328244142234325">
        <ele>75.2109375</ele>
      </trkpt>
      <trkpt lat="50.721452487632632" lon="4.32844421826303">
        <ele>76.078125</ele>
      </trkpt>
      <trkpt lat="50.721075301989913" lon="4.328545052558184">
        <ele>77.2890625</ele>
      </trkpt>
      <trkpt lat="50.720949824899435" lon="4.328744541853666">
        <ele>77.375</ele>
      </trkpt>
      <trkpt lat="50.720825688913465" lon="4.330038959160447">
        <ele>84.53125</ele>
      </trkpt>
      <trkpt lat="50.720197800546885" lon="4.330737758427858">
        <ele>90.296875</ele>
      </trkpt>
      <trkpt lat="50.720261335372925" lon="4.331235308200121">
        <ele>94.09375</ele>
      </trkpt>
      <trkpt lat="50.719068758189678" lon="4.332931386306882">
        <ele>106.97265625</ele>
      </trkpt>
      <trkpt lat="50.718315225094557" lon="4.33373018167913">
        <ele>110.5</ele>
      </trkpt>
      <trkpt lat="50.717687336727977" lon="4.334428980946541">
        <ele>106.26171875</ele>
      </trkpt>
      <trkpt lat="50.717184757813811" lon="4.334828797727823">
        <ele>103.78125</ele>
      </trkpt>
      <trkpt lat="50.716744791716337" lon="4.33492979966104">
        <ele>100.6796875</ele>
      </trkpt>
      <trkpt lat="50.716556115075946" lon="4.334930386394262">
        <ele>99.515625</ele>
      </trkpt>
      <trkpt lat="50.716178845614195" lon="4.334931643679738">
        <ele>99.5234375</ele>
      </trkpt>
      <trkpt lat="50.715738628059626" lon="4.334933068603277">
        <ele>99.83203125</ele>
      </trkpt>
      <trkpt lat="50.715110320597887" lon="4.335333304479718">
        <ele>105.8046875</ele>
      </trkpt>
      <trkpt lat="50.714797088876367" lon="4.336230168119073">
        <ele>106.16015625</ele>
      </trkpt>
      <trkpt lat="50.714483605697751" lon="4.336927961558104">
        <ele>108.8359375</ele>
      </trkpt>
      <trkpt lat="50.714107844978571" lon="4.338123723864555">
        <ele>109.12109375</ele>
      </trkpt>
      <trkpt lat="50.713732000440359" lon="4.339219909161329">
        <ele>112.0078125</ele>
      </trkpt>
      <trkpt lat="50.713292872533202" lon="4.340017698705196">
        <ele>114.66015625</ele>
      </trkpt>
      <trkpt lat="50.71279096417129" lon="4.340915149077773">
        <ele>113.6328125</ele>
      </trkpt>
      <trkpt lat="50.712163830175996" lon="4.342211242765188">
        <ele>107.53515625</ele>
      </trkpt>
      <trkpt lat="50.711662089452147" lon="4.343208270147443">
        <ele>103.5859375</ele>
      </trkpt>
      <trkpt lat="50.711411889642477" lon="4.344204543158412">
        <ele>109.38671875</ele>
      </trkpt>
      <trkpt lat="50.711349863559008" lon="4.344901498407126">
        <ele>113.52734375</ele>
      </trkpt>
      <trkpt lat="50.711225308477879" lon="4.345797775313258">
        <ele>116.5390625</ele>
      </trkpt>
      <trkpt lat="50.711226314306259" lon="4.346594139933586">
        <ele>117.84375</ele>
      </trkpt>
      <trkpt lat="50.711278030648828" lon="4.34819801710546">
        <ele>125.3</ele>
        <time>1970-01-01T01:10:34Z</time>
      </trkpt>
      <trkpt lat="50.710737984627485" lon="4.347931975498796">
        <ele>125.8</ele>
        <time>1970-01-01T01:10:44Z</time>
      </trkpt>
      <trkpt lat="50.710495999082923" lon="4.347698036581278">
        <ele>125.90000000000001</ele>
        <time>1970-01-01T01:10:49Z</time>
      </trkpt>
      <trkpt lat="50.710040023550391" lon="4.347523022443056">
        <ele>125.8</ele>
        <time>1970-01-01T01:10:57Z</time>
      </trkpt>
      <trkpt lat="50.708501022309065" lon="4.34673797339201">
        <ele>124.90000000000001</ele>
        <time>1970-01-01T01:11:24Z</time>
      </trkpt>
      <trkpt lat="50.707618994638324" lon="4.346667984500527">
        <ele>125</ele>
        <time>1970-01-01T01:11:38Z</time>
      </trkpt>
      <trkpt lat="50.705066034570336" lon="4.346287027001381">
        <ele>126</ele>
        <time>1970-01-01T01:13:08Z</time>
      </trkpt>
      <trkpt lat="50.705005014315248" lon="4.346347041428089">
        <ele>126</ele>
        <time>1970-01-01T01:18:18Z</time>
      </trkpt>
      <trkpt lat="50.703745968639851" lon="4.346225000917912">
        <ele>126.09999999999999</ele>
        <time>1970-01-01T01:18:47Z</time>
      </trkpt>
      <trkpt lat="50.703465007245541" lon="4.346277974545956">
        <ele>125.7</ele>
        <time>1970-01-01T01:18:52Z</time>
      </trkpt>
      <trkpt lat="50.702823037281632" lon="4.346551978960633">
        <ele>123.90000000000001</ele>
        <time>1970-01-01T01:19:04Z</time>
      </trkpt>
      <trkpt lat="50.702268993481994" lon="4.346657004207373">
        <ele>122</ele>
        <time>1970-01-01T01:19:13Z</time>
      </trkpt>
      <trkpt lat="50.700282985344529" lon="4.345461996272206">
        <ele>115.5</ele>
        <time>1970-01-01T01:19:45Z</time>
      </trkpt>
      <trkpt lat="50.699688037857413" lon="4.345271978527308">
        <ele>113.90000000000001</ele>
        <time>1970-01-01T01:19:54Z</time>
      </trkpt>
      <trkpt lat="50.698796035721898" lon="4.345429977402091">
        <ele>103.59999999999999</ele>
        <time>1970-01-01T01:20:13Z</time>
      </trkpt>
      <trkpt lat="50.698250038549304" lon="4.345450010150671">
        <ele>95.099999999999994</ele>
        <time>1970-01-01T01:20:23Z</time>
      </trkpt>
      <trkpt lat="50.697913002222776" lon="4.345670035108924">
        <ele>92</ele>
        <time>1970-01-01T01:20:29Z</time>
      </trkpt>
      <trkpt lat="50.697250999510288" lon="4.346345029771328">
        <ele>88.400000000000006</ele>
        <time>1970-01-01T01:20:44Z</time>
      </trkpt>
      <trkpt lat="50.697200959548354" lon="4.346258025616407">
        <ele>88.099999999999994</ele>
        <time>1970-01-01T01:20:47Z</time>
      </trkpt>
      <trkpt lat="50.697445040568709" lon="4.34476001188159">
        <ele>92.200000000000003</ele>
        <time>1970-01-01T01:21:11Z</time>
      </trkpt>
      <trkpt lat="50.697508994489908" lon="4.343831967562437">
        <ele>94.799999999999997</ele>
        <time>1970-01-01T01:21:32Z</time>
      </trkpt>
      <trkpt lat="50.697615025565028" lon="4.343532985076308">
        <ele>94.799999999999997</ele>
        <time>1970-01-01T01:21:40Z</time>
      </trkpt>
      <trkpt lat="50.697871008887887" lon="4.343268033117056">
        <ele>93.900000000000006</ele>
        <time>1970-01-01T01:21:46Z</time>
      </trkpt>
      <trkpt lat="50.698121041059494" lon="4.342866959050298">
        <ele>92.599999999999994</ele>
        <time>1970-01-01T01:21:52Z</time>
      </trkpt>
      <trkpt lat="50.698194969445467" lon="4.342637965455651">
        <ele>92.200000000000003</ele>
        <time>1970-01-01T01:21:56Z</time>
      </trkpt>
      <trkpt lat="50.698173008859158" lon="4.342421963810921">
        <ele>92</ele>
        <time>1970-01-01T01:22:02Z</time>
      </trkpt>
      <trkpt lat="50.697990031912923" lon="4.342412995174527">
        <ele>91.900000000000006</ele>
        <time>1970-01-01T01:22:12Z</time>
      </trkpt>
      <trkpt lat="50.698188012465835" lon="4.342363039031625">
        <ele>91.799999999999997</ele>
        <time>1970-01-01T01:22:24Z</time>
      </trkpt>
      <trkpt lat="50.697720972821116" lon="4.341630041599274">
        <ele>94.599999999999994</ele>
        <time>1970-01-01T01:22:45Z</time>
      </trkpt>
      <trkpt lat="50.697703035548329" lon="4.341422002762556">
        <ele>96.099999999999994</ele>
        <time>1970-01-01T01:22:52Z</time>
      </trkpt>
      <trkpt lat="50.698073012754321" lon="4.340701997280121">
        <ele>102.40000000000001</ele>
        <time>1970-01-01T01:23:20Z</time>
      </trkpt>
      <trkpt lat="50.698230005800724" lon="4.339945027604699">
        <ele>108.8</ele>
        <time>1970-01-01T01:23:47Z</time>
      </trkpt>
      <trkpt lat="50.698273004963994" lon="4.339457033202052">
        <ele>112.7</ele>
        <time>1970-01-01T01:24:02Z</time>
      </trkpt>
      <trkpt lat="50.698230005800724" lon="4.339182022958994">
        <ele>114.09999999999999</ele>
        <time>1970-01-01T01:24:12Z</time>
      </trkpt>
      <trkpt lat="50.698031019419432" lon="4.338807016611099">
        <ele>113.5</ele>
        <time>1970-01-01T01:24:21Z</time>
      </trkpt>
      <trkpt lat="50.697892969474196" lon="4.337911996990442">
        <ele>110.8</ele>
        <time>1970-01-01T01:24:33Z</time>
      </trkpt>
      <trkpt lat="50.697445962578058" lon="4.337074980139732">
        <ele>106.90000000000001</ele>
        <time>1970-01-01T01:24:44Z</time>
      </trkpt>
      <trkpt lat="50.697013037279248" lon="4.33601500466466">
        <ele>103.8</ele>
        <time>1970-01-01T01:24:56Z</time>
      </trkpt>
      <trkpt lat="50.696712965145707" lon="4.335528016090393">
        <ele>102.3</ele>
        <time>1970-01-01T01:25:04Z</time>
      </trkpt>
      <trkpt lat="50.696291020140052" lon="4.33500699698925">
        <ele>98.200000000000003</ele>
        <time>1970-01-01T01:25:14Z</time>
      </trkpt>
      <trkpt lat="50.695460960268974" lon="4.334457982331514">
        <ele>90.599999999999994</ele>
        <time>1970-01-01T01:25:26Z</time>
      </trkpt>
      <trkpt lat="50.695183016359806" lon="4.334086999297142">
        <ele>88.299999999999997</ele>
        <time>1970-01-01T01:25:30Z</time>
      </trkpt>
      <trkpt lat="50.694956034421921" lon="4.333397001028061">
        <ele>85</ele>
        <time>1970-01-01T01:25:37Z</time>
      </trkpt>
      <trkpt lat="50.695005990564823" lon="4.333058036863804">
        <ele>84</ele>
        <time>1970-01-01T01:25:41Z</time>
      </trkpt>
      <trkpt lat="50.695196008309722" lon="4.332776991650462">
        <ele>83.099999999999994</ele>
        <time>1970-01-01T01:26:03Z</time>
      </trkpt>
      <trkpt lat="50.696127992123365" lon="4.332356974482536">
        <ele>81.5</ele>
        <time>1970-01-01T01:26:22Z</time>
      </trkpt>
      <trkpt lat="50.69652303121984" lon="4.331972999498248">
        <ele>78.400000000000006</ele>
        <time>1970-01-01T01:26:29Z</time>
      </trkpt>
      <trkpt lat="50.696793012320995" lon="4.331511994823813">
        <ele>76.299999999999997</ele>
        <time>1970-01-01T01:26:35Z</time>
      </trkpt>
      <trkpt lat="50.696753030642867" lon="4.331185016781092">
        <ele>75.400000000000006</ele>
        <time>1970-01-01T01:26:38Z</time>
      </trkpt>
      <trkpt lat="50.696015004068613" lon="4.328465005382896">
        <ele>82.200000000000003</ele>
        <time>1970-01-01T01:27:17Z</time>
      </trkpt>
      <trkpt lat="50.695716021582484" lon="4.326904965564609">
        <ele>87.400000000000006</ele>
        <time>1970-01-01T01:27:44Z</time>
      </trkpt>
      <trkpt lat="50.694986041635275" lon="4.323605010285974">
        <ele>101.7</ele>
        <time>1970-01-01T01:28:50Z</time>
      </trkpt>
      <trkpt lat="50.69500096142292" lon="4.323505014181137">
        <ele>102.59999999999999</ele>
        <time>1970-01-01T01:28:52Z</time>
      </trkpt>
      <trkpt lat="50.695619964972138" lon="4.322675038129091">
        <ele>107</ele>
        <time>1970-01-01T01:29:15Z</time>
      </trkpt>
      <trkpt lat="50.695690037682652" lon="4.322474962100387">
        <ele>107.5</ele>
        <time>1970-01-01T01:29:19Z</time>
      </trkpt>
      <trkpt lat="50.696354974061251" lon="4.321275008842349">
        <ele>110.90000000000001</ele>
        <time>1970-01-01T01:29:46Z</time>
      </trkpt>
      <trkpt lat="50.696711037307978" lon="4.319627964869142">
        <ele>113.3</ele>
        <time>1970-01-01T01:30:14Z</time>
      </trkpt>
      <trkpt lat="50.697186039760709" lon="4.318174961954355">
        <ele>117.8</ele>
        <time>1970-01-01T01:30:41Z</time>
      </trkpt>
      <trkpt lat="50.697678979486227" lon="4.316467987373471">
        <ele>123.90000000000001</ele>
        <time>1970-01-01T01:31:12Z</time>
      </trkpt>
      <trkpt lat="50.699027962982655" lon="4.313807990401983">
        <ele>125.59999999999999</ele>
        <time>1970-01-01T01:31:53Z</time>
      </trkpt>
      <trkpt lat="50.70045598782599" lon="4.311610003933311">
        <ele>122.59999999999999</ele>
        <time>1970-01-01T01:32:27Z</time>
      </trkpt>
      <trkpt lat="50.701868003234267" lon="4.309607986360788">
        <ele>122.3</ele>
        <time>1970-01-01T01:33:04Z</time>
      </trkpt>
      <trkpt lat="50.702335964888334" lon="4.30804300121963">
        <ele>122.8</ele>
        <time>1970-01-01T01:33:36Z</time>
      </trkpt>
      <trkpt lat="50.702767968177795" lon="4.306898033246398">
        <ele>122.09999999999999</ele>
        <time>1970-01-01T01:34:01Z</time>
      </trkpt>
      <trkpt lat="50.7026900164783" lon="4.30673198774457">
        <ele>122.40000000000001</ele>
        <time>1970-01-01T01:34:07Z</time>
      </trkpt>
      <trkpt lat="50.701601039618254" lon="4.306035032495856">
        <ele>125.90000000000001</ele>
        <time>1970-01-01T01:34:35Z</time>
      </trkpt>
      <trkpt lat="50.701435999944806" lon="4.305811990052462">
        <ele>126.09999999999999</ele>
        <time>1970-01-01T01:34:40Z</time>
      </trkpt>
      <trkpt lat="50.700910035520792" lon="4.305457016453147">
        <ele>125.90000000000001</ele>
        <time>1970-01-01T01:34:54Z</time>
      </trkpt>
      <trkpt lat="50.700624966993928" lon="4.305349979549646">
        <ele>125.59999999999999</ele>
        <time>1970-01-01T01:35:00Z</time>
      </trkpt>
      <trkpt lat="50.700475014746189" lon="4.305216958746314">
        <ele>125.3</ele>
        <time>1970-01-01T01:35:05Z</time>
      </trkpt>
      <trkpt lat="50.700338976457715" lon="4.305189969018102">
        <ele>124.7</ele>
        <time>1970-01-01T01:35:09Z</time>
      </trkpt>
      <trkpt lat="50.700146025046706" lon="4.305749963968992">
        <ele>123.90000000000001</ele>
        <time>1970-01-01T01:35:24Z</time>
      </trkpt>
      <trkpt lat="50.700022978708148" lon="4.305754993110895">
        <ele>123.40000000000001</ele>
        <time>1970-01-01T01:35:28Z</time>
      </trkpt>
      <trkpt lat="50.699735982343554" lon="4.305458022281528">
        <ele>123.59999999999999</ele>
        <time>1970-01-01T01:35:38Z</time>
      </trkpt>
      <trkpt lat="50.699675967916846" lon="4.305330030620098">
        <ele>123.7</ele>
        <time>1970-01-01T01:35:42Z</time>
      </trkpt>
      <trkpt lat="50.70009296759963" lon="4.30282199755311">
        <ele>126.7</ele>
        <time>1970-01-01T01:36:21Z</time>
      </trkpt>
      <trkpt lat="50.700050974264741" lon="4.302531983703375">
        <ele>127.09999999999999</ele>
        <time>1970-01-01T01:36:26Z</time>
      </trkpt>
      <trkpt lat="50.699820974841714" lon="4.302154965698719">
        <ele>126.90000000000001</ele>
        <time>1970-01-01T01:36:34Z</time>
      </trkpt>
      <trkpt lat="50.699607990682125" lon="4.301637969911099">
        <ele>126.7</ele>
        <time>1970-01-01T01:36:43Z</time>
      </trkpt>
      <trkpt lat="50.699185039848089" lon="4.300847975537181">
        <ele>126.2</ele>
        <time>1970-01-01T01:36:57Z</time>
      </trkpt>
      <trkpt lat="50.698730992153287" lon="4.300132999196649">
        <ele>126.5</ele>
        <time>1970-01-01T01:37:12Z</time>
      </trkpt>
      <trkpt lat="50.69867399521172" lon="4.299923032522202">
        <ele>126.7</ele>
        <time>1970-01-01T01:37:16Z</time>
      </trkpt>
      <trkpt lat="50.698264958336949" lon="4.299158016219735">
        <ele>127.2</ele>
        <time>1970-01-01T01:37:33Z</time>
      </trkpt>
      <trkpt lat="50.698095979169011" lon="4.298932962119579">
        <ele>127.2</ele>
        <time>1970-01-01T01:37:38Z</time>
      </trkpt>
      <trkpt lat="50.698037976399064" lon="4.298721989616752">
        <ele>127.40000000000001</ele>
        <time>1970-01-01T01:37:43Z</time>
      </trkpt>
      <trkpt lat="50.697913002222776" lon="4.298572959378362">
        <ele>127.5</ele>
        <time>1970-01-01T01:37:46Z</time>
      </trkpt>
      <trkpt lat="50.697649978101254" lon="4.297971976920962">
        <ele>127.8</ele>
        <time>1970-01-01T01:38:03Z</time>
      </trkpt>
      <trkpt lat="50.697393994778395" lon="4.297582972794771">
        <ele>128</ele>
        <time>1970-01-01T01:38:14Z</time>
      </trkpt>
      <trkpt lat="50.697393994778395" lon="4.297382980585098">
        <ele>128</ele>
        <time>1970-01-01T01:38:17Z</time>
      </trkpt>
      <trkpt lat="50.697528021410108" lon="4.296728018671274">
        <ele>127.40000000000001</ele>
        <time>1970-01-01T01:38:31Z</time>
      </trkpt>
      <trkpt lat="50.697805965319276" lon="4.295863006263971">
        <ele>124.8</ele>
        <time>1970-01-01T01:42:55Z</time>
      </trkpt>
      <trkpt lat="50.698030013591051" lon="4.294531960040331">
        <ele>116.7</ele>
        <time>1970-01-01T01:43:24Z</time>
      </trkpt>
      <trkpt lat="50.697934962809086" lon="4.294321993365884">
        <ele>116.09999999999999</ele>
        <time>1970-01-01T01:43:34Z</time>
      </trkpt>
      <trkpt lat="50.697761038318276" lon="4.294180003926158">
        <ele>116.40000000000001</ele>
        <time>1970-01-01T01:43:39Z</time>
      </trkpt>
      <trkpt lat="50.697220992296934" lon="4.29396802559495">
        <ele>117.8</ele>
        <time>1970-01-01T01:43:52Z</time>
      </trkpt>
      <trkpt lat="50.696658985689282" lon="4.293917985633016">
        <ele>119.7</ele>
        <time>1970-01-01T01:44:06Z</time>
      </trkpt>
      <trkpt lat="50.695745022967458" lon="4.293595030903816">
        <ele>123.8</ele>
        <time>1970-01-01T01:44:29Z</time>
      </trkpt>
      <trkpt lat="50.695567997172475" lon="4.293439965695143">
        <ele>125.8</ele>
        <time>1970-01-01T01:44:36Z</time>
      </trkpt>
      <trkpt lat="50.695575959980488" lon="4.293281966820359">
        <ele>128</ele>
        <time>1970-01-01T01:44:40Z</time>
      </trkpt>
      <trkpt lat="50.695740999653935" lon="4.292773017659783">
        <ele>128.90000000000001</ele>
        <time>1970-01-01T01:44:49Z</time>
      </trkpt>
      <trkpt lat="50.696855038404465" lon="4.290894968435168">
        <ele>130.30000000000001</ele>
        <time>1970-01-01T01:45:25Z</time>
      </trkpt>
      <trkpt lat="50.698397979140282" lon="4.288681978359819">
        <ele>126.3</ele>
        <time>1970-01-01T01:45:58Z</time>
      </trkpt>
      <trkpt lat="50.698618004098535" lon="4.287719987332821">
        <ele>125.90000000000001</ele>
        <time>1970-01-01T01:46:10Z</time>
      </trkpt>
      <trkpt lat="50.698810033500195" lon="4.285728028044105">
        <ele>125</ele>
        <time>1970-01-01T01:46:32Z</time>
      </trkpt>
      <trkpt lat="50.698993010446429" lon="4.284633016213775">
        <ele>124.59999999999999</ele>
        <time>1970-01-01T01:46:43Z</time>
      </trkpt>
      <trkpt lat="50.699051013216376" lon="4.284002026543021">
        <ele>123.5</ele>
        <time>1970-01-01T01:46:49Z</time>
      </trkpt>
      <trkpt lat="50.699559962376952" lon="4.281389974057674">
        <ele>121.40000000000001</ele>
        <time>1970-01-01T01:47:17Z</time>
      </trkpt>
      <trkpt lat="50.699656018987298" lon="4.281198028475046">
        <ele>121.40000000000001</ele>
        <time>1970-01-01T01:47:20Z</time>
      </trkpt>
      <trkpt lat="50.700207967311144" lon="4.281553002074361">
        <ele>120.8</ele>
        <time>1970-01-01T01:47:31Z</time>
      </trkpt>
      <trkpt lat="50.701990965753794" lon="4.28301296196878">
        <ele>119.8</ele>
        <time>1970-01-01T01:48:12Z</time>
      </trkpt>
      <trkpt lat="50.702162962406874" lon="4.283007010817528">
        <ele>119.3</ele>
        <time>1970-01-01T01:48:16Z</time>
      </trkpt>
      <trkpt lat="50.702330013737082" lon="4.28228298202157">
        <ele>119.40000000000001</ele>
        <time>1970-01-01T01:48:27Z</time>
      </trkpt>
      <trkpt lat="50.702437972649932" lon="4.28142199292779">
        <ele>118.90000000000001</ele>
        <time>1970-01-01T01:48:40Z</time>
      </trkpt>
      <trkpt lat="50.702537968754768" lon="4.280987977981567">
        <ele>118.5</ele>
        <time>1970-01-01T01:48:50Z</time>
      </trkpt>
      <trkpt lat="50.702665038406849" lon="4.279643017798662">
        <ele>118.40000000000001</ele>
        <time>1970-01-01T01:49:08Z</time>
      </trkpt>
      <trkpt lat="50.702748019248247" lon="4.279519971460104">
        <ele>118.7</ele>
        <time>1970-01-01T01:49:11Z</time>
      </trkpt>
      <trkpt lat="50.703050019219518" lon="4.2797049600631">
        <ele>119.59999999999999</ele>
        <time>1970-01-01T01:49:19Z</time>
      </trkpt>
      <trkpt lat="50.703388983383775" lon="4.280062029138207">
        <ele>120.3</ele>
        <time>1970-01-01T01:49:28Z</time>
      </trkpt>
      <trkpt lat="50.70383096113801" lon="4.280733000487089">
        <ele>121.09999999999999</ele>
        <time>1970-01-01T01:49:46Z</time>
      </trkpt>
      <trkpt lat="50.703802965581417" lon="4.280855040997267">
        <ele>119.90000000000001</ele>
        <time>1970-01-01T01:49:51Z</time>
      </trkpt>
      <trkpt lat="50.703896004706621" lon="4.280912037938833">
        <ele>117</ele>
        <time>1970-01-01T01:50:37Z</time>
      </trkpt>
      <trkpt lat="50.706147970631719" lon="4.281546967104077">
        <ele>113.3</ele>
        <time>1970-01-01T01:51:21Z</time>
      </trkpt>
      <trkpt lat="50.706271016970277" lon="4.281447976827622">
        <ele>114.3</ele>
        <time>1970-01-01T01:51:24Z</time>
      </trkpt>
      <trkpt lat="50.706497998908162" lon="4.28109803237021">
        <ele>116.59999999999999</ele>
        <time>1970-01-01T01:51:32Z</time>
      </trkpt>
      <trkpt lat="50.706590032204986" lon="4.280825033783913">
        <ele>117.09999999999999</ele>
        <time>1970-01-01T01:51:38Z</time>
      </trkpt>
      <trkpt lat="50.706760017201304" lon="4.280699975788593">
        <ele>117</ele>
        <time>1970-01-01T01:51:43Z</time>
      </trkpt>
      <trkpt lat="50.707018012180924" lon="4.280381966382265">
        <ele>117</ele>
        <time>1970-01-01T01:51:51Z</time>
      </trkpt>
      <trkpt lat="50.707436017692089" lon="4.27950999699533">
        <ele>115.3</ele>
        <time>1970-01-01T01:52:06Z</time>
      </trkpt>
      <trkpt lat="50.70748102851212" lon="4.279267005622387">
        <ele>115</ele>
        <time>1970-01-01T01:52:10Z</time>
      </trkpt>
      <trkpt lat="50.707458984106779" lon="4.279010016471148">
        <ele>114.59999999999999</ele>
        <time>1970-01-01T01:52:15Z</time>
      </trkpt>
      <trkpt lat="50.707302996888757" lon="4.278541970998049">
        <ele>113.90000000000001</ele>
        <time>1970-01-01T01:52:24Z</time>
      </trkpt>
      <trkpt lat="50.707300985231996" lon="4.277969989925623">
        <ele>113.2</ele>
        <time>1970-01-01T01:52:41Z</time>
      </trkpt>
      <trkpt lat="50.706338994204998" lon="4.276914959773421">
        <ele>112.7</ele>
        <time>1970-01-01T01:53:44Z</time>
      </trkpt>
      <trkpt lat="50.705905985087156" lon="4.276614971458912">
        <ele>112.90000000000001</ele>
        <time>1970-01-01T01:53:53Z</time>
      </trkpt>
      <trkpt lat="50.704845003783703" lon="4.276420008391142">
        <ele>115.09999999999999</ele>
        <time>1970-01-01T01:54:16Z</time>
      </trkpt>
      <trkpt lat="50.704208984971046" lon="4.276163019239903">
        <ele>116.3</ele>
        <time>1970-01-01T01:54:33Z</time>
      </trkpt>
      <trkpt lat="50.703919976949692" lon="4.275914998725057">
        <ele>116.3</ele>
        <time>1970-01-01T01:54:41Z</time>
      </trkpt>
      <trkpt lat="50.703747980296612" lon="4.275652980431914">
        <ele>116.3</ele>
        <time>1970-01-01T01:54:48Z</time>
      </trkpt>
      <trkpt lat="50.703542958945036" lon="4.275494981557131">
        <ele>116.40000000000001</ele>
        <time>1970-01-01T01:54:53Z</time>
      </trkpt>
      <trkpt lat="50.703559974208474" lon="4.275409989058971">
        <ele>116.90000000000001</ele>
        <time>1970-01-01T01:54:56Z</time>
      </trkpt>
      <trkpt lat="50.703863985836506" lon="4.275203039869666">
        <ele>115.3</ele>
        <time>1970-01-01T01:55:04Z</time>
      </trkpt>
      <trkpt lat="50.704460022971034" lon="4.274947978556156">
        <ele>111.90000000000001</ele>
        <time>1970-01-01T01:55:14Z</time>
      </trkpt>
      <trkpt lat="50.705000991001725" lon="4.274591999128461">
        <ele>108.5</ele>
        <time>1970-01-01T01:55:22Z</time>
      </trkpt>
      <trkpt lat="50.705518992617726" lon="4.273905018344522">
        <ele>104.2</ele>
        <time>1970-01-01T01:55:32Z</time>
      </trkpt>
      <trkpt lat="50.705618988722563" lon="4.27386000752449">
        <ele>103.3</ele>
        <time>1970-01-01T01:55:34Z</time>
      </trkpt>
      <trkpt lat="50.707687977701426" lon="4.274785034358501">
        <ele>89.299999999999997</ele>
        <time>1970-01-01T01:56:14Z</time>
      </trkpt>
      <trkpt lat="50.708317961543798" lon="4.274964993819594">
        <ele>83.900000000000006</ele>
        <time>1970-01-01T01:56:25Z</time>
      </trkpt>
      <trkpt lat="50.708905030041933" lon="4.275252996012569">
        <ele>79.5</ele>
        <time>1970-01-01T01:56:35Z</time>
      </trkpt>
      <trkpt lat="50.709131006151438" lon="4.27544703707099">
        <ele>78.200000000000003</ele>
        <time>1970-01-01T01:56:40Z</time>
      </trkpt>
      <trkpt lat="50.709550017490983" lon="4.27557704038918">
        <ele>77.700000000000003</ele>
        <time>1970-01-01T01:56:52Z</time>
      </trkpt>
      <trkpt lat="50.709638027474284" lon="4.27553303539753">
        <ele>77.200000000000003</ele>
        <time>1970-01-01T01:56:57Z</time>
      </trkpt>
      <trkpt lat="50.710530029609799" lon="4.275726992636919">
        <ele>74.400000000000006</ele>
        <time>1970-01-01T01:57:20Z</time>
      </trkpt>
      <trkpt lat="50.711309965699911" lon="4.276208030059934">
        <ele>72.400000000000006</ele>
        <time>1970-01-01T01:57:35Z</time>
      </trkpt>
      <trkpt lat="50.712477983906865" lon="4.277549972757697">
        <ele>70.599999999999994</ele>
        <time>1970-01-01T01:58:03Z</time>
      </trkpt>
      <trkpt lat="50.713706016540527" lon="4.278502995148301">
        <ele>68.200000000000003</ele>
        <time>1970-01-01T01:58:28Z</time>
      </trkpt>
      <trkpt lat="50.714740008115768" lon="4.279091991484165">
        <ele>66.099999999999994</ele>
        <time>1970-01-01T01:58:46Z</time>
      </trkpt>
      <trkpt lat="50.715954964980483" lon="4.279373036697507">
        <ele>65.099999999999994</ele>
        <time>1970-01-01T01:59:09Z</time>
      </trkpt>
      <trkpt lat="50.715993018820882" lon="4.279497005045414">
        <ele>65.299999999999997</ele>
        <time>1970-01-01T01:59:12Z</time>
      </trkpt>
      <trkpt lat="50.715921018272638" lon="4.280269984155893">
        <ele>69.299999999999997</ele>
        <time>1970-01-01T01:59:29Z</time>
      </trkpt>
      <trkpt lat="50.715960999950767" lon="4.280429994687438">
        <ele>70.599999999999994</ele>
        <time>1970-01-01T01:59:33Z</time>
      </trkpt>
      <trkpt lat="50.715913977473974" lon="4.280656976625323">
        <ele>72.400000000000006</ele>
        <time>1970-01-01T01:59:40Z</time>
      </trkpt>
      <trkpt lat="50.71594599634409" lon="4.280782034620643">
        <ele>73.400000000000006</ele>
        <time>1970-01-01T01:59:44Z</time>
      </trkpt>
      <trkpt lat="50.715880030766129" lon="4.281491981819272">
        <ele>77.900000000000006</ele>
        <time>1970-01-01T02:00:06Z</time>
      </trkpt>
      <trkpt lat="50.715905008837581" lon="4.281598012894392">
        <ele>78.5</ele>
        <time>1970-01-01T02:00:10Z</time>
      </trkpt>
      <trkpt lat="50.715813981369138" lon="4.282347019761801">
        <ele>81.700000000000003</ele>
        <time>1970-01-01T02:00:30Z</time>
      </trkpt>
      <trkpt lat="50.715694958344102" lon="4.282801989465952">
        <ele>84.5</ele>
        <time>1970-01-01T02:00:45Z</time>
      </trkpt>
      <trkpt lat="50.715448027476668" lon="4.283327031880617">
        <ele>89.299999999999997</ele>
        <time>1970-01-01T02:00:58Z</time>
      </trkpt>
      <trkpt lat="50.715380972251296" lon="4.284154996275902">
        <ele>93.599999999999994</ele>
        <time>1970-01-01T02:01:16Z</time>
      </trkpt>
      <trkpt lat="50.715416008606553" lon="4.284251974895597">
        <ele>93.799999999999997</ele>
        <time>1970-01-01T02:01:18Z</time>
      </trkpt>
      <trkpt lat="50.715348031371832" lon="4.284343002364039">
        <ele>94</ele>
        <time>1970-01-01T02:01:22Z</time>
      </trkpt>
      <trkpt lat="50.715376026928425" lon="4.284511981531978">
        <ele>93.400000000000006</ele>
        <time>1970-01-01T02:01:27Z</time>
      </trkpt>
      <trkpt lat="50.715318024158478" lon="4.285068036988378">
        <ele>89.900000000000006</ele>
        <time>1970-01-01T02:01:37Z</time>
      </trkpt>
      <trkpt lat="50.715231020003557" lon="4.285225030034781">
        <ele>88.299999999999997</ele>
        <time>1970-01-01T02:01:41Z</time>
      </trkpt>
      <trkpt lat="50.714935977011919" lon="4.285428039729595">
        <ele>84.099999999999994</ele>
        <time>1970-01-01T02:01:48Z</time>
      </trkpt>
      <trkpt lat="50.714705977588892" lon="4.285716963931918">
        <ele>80.599999999999994</ele>
        <time>1970-01-01T02:01:53Z</time>
      </trkpt>
      <trkpt lat="50.714085968211293" lon="4.286161959171295">
        <ele>77.099999999999994</ele>
        <time>1970-01-01T02:02:02Z</time>
      </trkpt>
      <trkpt lat="50.713451039046049" lon="4.28700802847743">
        <ele>79.200000000000003</ele>
        <time>1970-01-01T02:02:18Z</time>
      </trkpt>
      <trkpt lat="50.713442992419004" lon="4.286890011280775">
        <ele>79.5</ele>
        <time>1970-01-01T02:02:23Z</time>
      </trkpt>
      <trkpt lat="50.713388007134199" lon="4.286871990188956">
        <ele>79.599999999999994</ele>
        <time>1970-01-01T02:02:25Z</time>
      </trkpt>
      <trkpt lat="50.713115008547902" lon="4.287150017917156">
        <ele>81.099999999999994</ele>
        <time>1970-01-01T02:02:37Z</time>
      </trkpt>
      <trkpt lat="50.712310010567307" lon="4.287580009549856">
        <ele>85.200000000000003</ele>
        <time>1970-01-01T02:03:02Z</time>
      </trkpt>
      <trkpt lat="50.711420020088553" lon="4.288430018350482">
        <ele>89.900000000000006</ele>
        <time>1970-01-01T02:03:31Z</time>
      </trkpt>
      <trkpt lat="50.710707977414131" lon="4.288611989468336">
        <ele>91.099999999999994</ele>
        <time>1970-01-01T02:03:50Z</time>
      </trkpt>
      <trkpt lat="50.710070030763745" lon="4.289142983034253">
        <ele>93.099999999999994</ele>
        <time>1970-01-01T02:04:07Z</time>
      </trkpt>
      <trkpt lat="50.708921039476991" lon="4.289644975215197">
        <ele>96</ele>
        <time>1970-01-01T02:04:32Z</time>
      </trkpt>
      <trkpt lat="50.707826027646661" lon="4.290567990392447">
        <ele>100.09999999999999</ele>
        <time>1970-01-01T02:05:02Z</time>
      </trkpt>
      <trkpt lat="50.707721002399921" lon="4.290537983179092">
        <ele>101.2</ele>
        <time>1970-01-01T02:05:07Z</time>
      </trkpt>
      <trkpt lat="50.707553029060364" lon="4.290182003751397">
        <ele>102.90000000000001</ele>
        <time>1970-01-01T02:05:36Z</time>
      </trkpt>
      <trkpt lat="50.707318000495434" lon="4.289942029863596">
        <ele>104.59999999999999</ele>
        <time>1970-01-01T02:05:45Z</time>
      </trkpt>
      <trkpt lat="50.70722496137023" lon="4.289667019620538">
        <ele>105.7</ele>
        <time>1970-01-01T02:05:55Z</time>
      </trkpt>
      <trkpt lat="50.707100993022323" lon="4.289578003808856">
        <ele>106.5</ele>
        <time>1970-01-01T02:06:00Z</time>
      </trkpt>
      <trkpt lat="50.706694973632693" lon="4.289510026574135">
        <ele>108.40000000000001</ele>
        <time>1970-01-01T02:06:18Z</time>
      </trkpt>
      <trkpt lat="50.706573016941547" lon="4.289420004934073">
        <ele>108.90000000000001</ele>
        <time>1970-01-01T02:10:20Z</time>
      </trkpt>
      <trkpt lat="50.706004975363612" lon="4.28928698413074">
        <ele>111.40000000000001</ele>
        <time>1970-01-01T02:10:44Z</time>
      </trkpt>
      <trkpt lat="50.705889975652099" lon="4.289124961942434">
        <ele>112</ele>
        <time>1970-01-01T02:10:50Z</time>
      </trkpt>
      <trkpt lat="50.70507500320673" lon="4.288657000288367">
        <ele>115.09999999999999</ele>
        <time>1970-01-01T02:11:18Z</time>
      </trkpt>
      <trkpt lat="50.704567981883883" lon="4.288266990333796">
        <ele>117.09999999999999</ele>
        <time>1970-01-01T02:11:34Z</time>
      </trkpt>
      <trkpt lat="50.704377964138985" lon="4.28819197230041">
        <ele>117.90000000000001</ele>
        <time>1970-01-01T02:11:40Z</time>
      </trkpt>
      <trkpt lat="50.704282997176051" lon="4.288230026140809">
        <ele>118.40000000000001</ele>
        <time>1970-01-01T02:11:43Z</time>
      </trkpt>
      <trkpt lat="50.704149976372719" lon="4.28851299919188">
        <ele>119.3</ele>
        <time>1970-01-01T02:11:51Z</time>
      </trkpt>
      <trkpt lat="50.703711016103625" lon="4.288981966674328">
        <ele>120.5</ele>
        <time>1970-01-01T02:12:06Z</time>
      </trkpt>
      <trkpt lat="50.703611019998789" lon="4.288986995816231">
        <ele>121.8</ele>
        <time>1970-01-01T02:12:09Z</time>
      </trkpt>
      <trkpt lat="50.703351013362408" lon="4.288697987794876">
        <ele>122.2</ele>
        <time>1970-01-01T02:12:16Z</time>
      </trkpt>
      <trkpt lat="50.703255962580442" lon="4.288487015292049">
        <ele>122.5</ele>
        <time>1970-01-01T02:12:20Z</time>
      </trkpt>
      <trkpt lat="50.703223021700978" lon="4.288152996450663">
        <ele>122.8</ele>
        <time>1970-01-01T02:12:26Z</time>
      </trkpt>
      <trkpt lat="50.703121013939381" lon="4.287968007847667">
        <ele>122.90000000000001</ele>
        <time>1970-01-01T02:12:30Z</time>
      </trkpt>
      <trkpt lat="50.703039960935712" lon="4.287968007847667">
        <ele>122.90000000000001</ele>
        <time>1970-01-01T02:12:32Z</time>
      </trkpt>
      <trkpt lat="50.702843992039561" lon="4.288240000605583">
        <ele>123.7</ele>
        <time>1970-01-01T02:12:39Z</time>
      </trkpt>
      <trkpt lat="50.702191041782498" lon="4.289541961625218">
        <ele>126.09999999999999</ele>
        <time>1970-01-01T02:13:05Z</time>
      </trkpt>
      <trkpt lat="50.701847970485687" lon="4.290030039846897">
        <ele>127.2</ele>
        <time>1970-01-01T02:13:13Z</time>
      </trkpt>
      <trkpt lat="50.701200971379876" lon="4.29124197922647">
        <ele>128.40000000000001</ele>
        <time>1970-01-01T02:13:32Z</time>
      </trkpt>
      <trkpt lat="50.70110097527504" lon="4.29197296500206">
        <ele>127.90000000000001</ele>
        <time>1970-01-01T02:13:43Z</time>
      </trkpt>
      <trkpt lat="50.700997961685061" lon="4.292057035490871">
        <ele>124.59999999999999</ele>
        <time>1970-01-01T02:14:21Z</time>
      </trkpt>
      <trkpt lat="50.701053030788898" lon="4.292270019650459">
        <ele>124.3</ele>
        <time>1970-01-01T02:14:27Z</time>
      </trkpt>
      <trkpt lat="50.70105898194015" lon="4.292713003233075">
        <ele>123.7</ele>
        <time>1970-01-01T02:14:33Z</time>
      </trkpt>
      <trkpt lat="50.701193008571863" lon="4.293308034539223">
        <ele>122.90000000000001</ele>
        <time>1970-01-01T02:14:41Z</time>
      </trkpt>
      <trkpt lat="50.701196026057005" lon="4.293542979285121">
        <ele>122.7</ele>
        <time>1970-01-01T02:14:44Z</time>
      </trkpt>
      <trkpt lat="50.701300967484713" lon="4.293859982863069">
        <ele>122.2</ele>
        <time>1970-01-01T02:14:48Z</time>
      </trkpt>
      <trkpt lat="50.701430970802903" lon="4.294070033356547">
        <ele>121.8</ele>
        <time>1970-01-01T02:14:51Z</time>
      </trkpt>
      <trkpt lat="50.701663987711072" lon="4.294691970571876">
        <ele>120.90000000000001</ele>
        <time>1970-01-01T02:15:00Z</time>
      </trkpt>
      <trkpt lat="50.701633980497718" lon="4.29502297192812">
        <ele>120.40000000000001</ele>
        <time>1970-01-01T02:15:04Z</time>
      </trkpt>
      <trkpt lat="50.701689971610904" lon="4.295554971322417">
        <ele>118.40000000000001</ele>
        <time>1970-01-01T02:15:10Z</time>
      </trkpt>
      <trkpt lat="50.701663987711072" lon="4.295771978795528">
        <ele>117.3</ele>
        <time>1970-01-01T02:15:14Z</time>
      </trkpt>
      <trkpt lat="50.701730959117413" lon="4.296127958223224">
        <ele>115.3</ele>
        <time>1970-01-01T02:15:25Z</time>
      </trkpt>
      <trkpt lat="50.702133039012551" lon="4.297388009727001">
        <ele>106.2</ele>
        <time>1970-01-01T02:15:38Z</time>
      </trkpt>
      <trkpt lat="50.702273016795516" lon="4.297641981393099">
        <ele>104.8</ele>
        <time>1970-01-01T02:15:41Z</time>
      </trkpt>
      <trkpt lat="50.702854972332716" lon="4.298178004100919">
        <ele>101.3</ele>
        <time>1970-01-01T02:15:50Z</time>
      </trkpt>
      <trkpt lat="50.703413039445877" lon="4.298427030444145">
        <ele>99.900000000000006</ele>
        <time>1970-01-01T02:15:58Z</time>
      </trkpt>
      <trkpt lat="50.703853005543351" lon="4.298821985721588">
        <ele>100.90000000000001</ele>
        <time>1970-01-01T02:16:12Z</time>
      </trkpt>
      <trkpt lat="50.703985020518303" lon="4.298821985721588">
        <ele>101.8</ele>
        <time>1970-01-01T02:16:20Z</time>
      </trkpt>
      <trkpt lat="50.703662987798452" lon="4.299565041437745">
        <ele>101.3</ele>
        <time>1970-01-01T02:16:38Z</time>
      </trkpt>
      <trkpt lat="50.703653013333678" lon="4.299737960100174">
        <ele>101.59999999999999</ele>
        <time>1970-01-01T02:16:40Z</time>
      </trkpt>
      <trkpt lat="50.702785989269614" lon="4.301066994667053">
        <ele>107</ele>
        <time>1970-01-01T02:17:15Z</time>
      </trkpt>
      <trkpt lat="50.701940003782511" lon="4.302504993975163">
        <ele>110.7</ele>
        <time>1970-01-01T02:17:54Z</time>
      </trkpt>
      <trkpt lat="50.701707992702723" lon="4.3026930000633">
        <ele>112</ele>
        <time>1970-01-01T02:18:07Z</time>
      </trkpt>
      <trkpt lat="50.701414961367846" lon="4.303339999169111">
        <ele>116.09999999999999</ele>
        <time>1970-01-01T02:18:29Z</time>
      </trkpt>
      <trkpt lat="50.701183034107089" lon="4.30350998416543">
        <ele>119.90000000000001</ele>
        <time>1970-01-01T02:18:38Z</time>
      </trkpt>
      <trkpt lat="50.700823031365871" lon="4.303997978568077">
        <ele>124.59999999999999</ele>
        <time>1970-01-01T02:18:54Z</time>
      </trkpt>
      <trkpt lat="50.700858989730477" lon="4.304035026580095">
        <ele>124.7</ele>
        <time>1970-01-01T02:19:00Z</time>
      </trkpt>
      <trkpt lat="50.700706019997597" lon="4.304150026291609">
        <ele>124.90000000000001</ele>
        <time>1970-01-01T02:24:23Z</time>
      </trkpt>
      <trkpt lat="50.700510973110795" lon="4.304767018184066">
        <ele>124.90000000000001</ele>
        <time>1970-01-01T02:24:42Z</time>
      </trkpt>
      <trkpt lat="50.700597977265716" lon="4.305076980963349">
        <ele>125.5</ele>
        <time>1970-01-01T02:25:55Z</time>
      </trkpt>
      <trkpt lat="50.700902994722128" lon="4.30542198009789">
        <ele>125.90000000000001</ele>
        <time>1970-01-01T02:26:13Z</time>
      </trkpt>
      <trkpt lat="50.701805977150798" lon="4.306071996688843">
        <ele>125.2</ele>
        <time>1970-01-01T02:26:51Z</time>
      </trkpt>
      <trkpt lat="50.702622961252928" lon="4.306552028283477">
        <ele>122.7</ele>
        <time>1970-01-01T02:27:16Z</time>
      </trkpt>
      <trkpt lat="50.702685993164778" lon="4.306459994986653">
        <ele>122.5</ele>
        <time>1970-01-01T02:27:25Z</time>
      </trkpt>
      <trkpt lat="50.703066028654575" lon="4.306311970576644">
        <ele>121.40000000000001</ele>
        <time>1970-01-01T02:27:56Z</time>
      </trkpt>
      <trkpt lat="50.703235007822514" lon="4.305909974500537">
        <ele>121</ele>
        <time>1970-01-01T02:28:03Z</time>
      </trkpt>
      <trkpt lat="50.703365011140704" lon="4.305388033390045">
        <ele>120.59999999999999</ele>
        <time>1970-01-01T02:28:13Z</time>
      </trkpt>
      <trkpt lat="50.703685032203794" lon="4.304589992389083">
        <ele>120.40000000000001</ele>
        <time>1970-01-01T02:28:24Z</time>
      </trkpt>
      <trkpt lat="50.703768013045192" lon="4.304077019914985">
        <ele>120.09999999999999</ele>
        <time>1970-01-01T02:28:30Z</time>
      </trkpt>
      <trkpt lat="50.703985020518303" lon="4.303462039679289">
        <ele>119.5</ele>
        <time>1970-01-01T02:28:38Z</time>
      </trkpt>
      <trkpt lat="50.704103037714958" lon="4.303292976692319">
        <ele>119.40000000000001</ele>
        <time>1970-01-01T02:28:41Z</time>
      </trkpt>
      <trkpt lat="50.70428098551929" lon="4.303258024156094">
        <ele>119.3</ele>
        <time>1970-01-01T02:28:46Z</time>
      </trkpt>
      <trkpt lat="50.704740984365344" lon="4.303448041900992">
        <ele>119.59999999999999</ele>
        <time>1970-01-01T02:28:57Z</time>
      </trkpt>
      <trkpt lat="50.704806027933955" lon="4.30365800857544">
        <ele>119.7</ele>
        <time>1970-01-01T02:29:01Z</time>
      </trkpt>
      <trkpt lat="50.704842992126942" lon="4.304086994379759">
        <ele>119.7</ele>
        <time>1970-01-01T02:29:07Z</time>
      </trkpt>
      <trkpt lat="50.704770991578698" lon="4.304934991523624">
        <ele>120.09999999999999</ele>
        <time>1970-01-01T02:29:18Z</time>
      </trkpt>
      <trkpt lat="50.704824971035123" lon="4.305162979289889">
        <ele>120.09999999999999</ele>
        <time>1970-01-01T02:29:22Z</time>
      </trkpt>
      <trkpt lat="50.705123031511903" lon="4.305521976202726">
        <ele>119.3</ele>
        <time>1970-01-01T02:29:31Z</time>
      </trkpt>
      <trkpt lat="50.706002963706851" lon="4.305591965094209">
        <ele>114.3</ele>
        <time>1970-01-01T02:29:52Z</time>
      </trkpt>
      <trkpt lat="50.706245033070445" lon="4.305728003382683">
        <ele>114.3</ele>
        <time>1970-01-01T02:29:59Z</time>
      </trkpt>
      <trkpt lat="50.706232963129878" lon="4.30593503639102">
        <ele>111.59999999999999</ele>
        <time>1970-01-01T02:30:04Z</time>
      </trkpt>
      <trkpt lat="50.706289960071445" lon="4.306141985580325">
        <ele>109.3</ele>
        <time>1970-01-01T02:30:09Z</time>
      </trkpt>
      <trkpt lat="50.70660101249814" lon="4.306499976664782">
        <ele>105.59999999999999</ele>
        <time>1970-01-01T02:30:17Z</time>
      </trkpt>
      <trkpt lat="50.706749958917499" lon="4.306756965816021">
        <ele>104</ele>
        <time>1970-01-01T02:30:22Z</time>
      </trkpt>
      <trkpt lat="50.706982975825667" lon="4.307709988206625">
        <ele>100.40000000000001</ele>
        <time>1970-01-01T02:30:35Z</time>
      </trkpt>
      <trkpt lat="50.706963026896119" lon="4.307809984311461">
        <ele>100.09999999999999</ele>
        <time>1970-01-01T02:30:37Z</time>
      </trkpt>
      <trkpt lat="50.706850038841367" lon="4.307903023436666">
        <ele>99.799999999999997</ele>
        <time>1970-01-01T02:30:41Z</time>
      </trkpt>
      <trkpt lat="50.705423019826412" lon="4.30812799371779">
        <ele>104.8</ele>
        <time>1970-01-01T02:31:15Z</time>
      </trkpt>
      <trkpt lat="50.704980036243796" lon="4.308377020061016">
        <ele>105.5</ele>
        <time>1970-01-01T02:31:26Z</time>
      </trkpt>
      <trkpt lat="50.7042580191046" lon="4.309025024995208">
        <ele>107.09999999999999</ele>
        <time>1970-01-01T02:31:43Z</time>
      </trkpt>
      <trkpt lat="50.704013016074896" lon="4.309342028573155">
        <ele>107.5</ele>
        <time>1970-01-01T02:31:51Z</time>
      </trkpt>
      <trkpt lat="50.703580006957054" lon="4.309683004394174">
        <ele>108.5</ele>
        <time>1970-01-01T02:32:03Z</time>
      </trkpt>
      <trkpt lat="50.702925967052579" lon="4.30971996858716">
        <ele>112.5</ele>
        <time>1970-01-01T02:32:32Z</time>
      </trkpt>
      <trkpt lat="50.702765034511685" lon="4.30978199467063">
        <ele>114.40000000000001</ele>
        <time>1970-01-01T02:32:37Z</time>
      </trkpt>
      <trkpt lat="50.702355997636914" lon="4.309692978858948">
        <ele>120.40000000000001</ele>
        <time>1970-01-01T02:33:04Z</time>
      </trkpt>
      <trkpt lat="50.702279973775148" lon="4.309477983042598">
        <ele>121.59999999999999</ele>
        <time>1970-01-01T02:33:13Z</time>
      </trkpt>
      <trkpt lat="50.702171009033918" lon="4.30935200303793">
        <ele>122.09999999999999</ele>
        <time>1970-01-01T02:33:18Z</time>
      </trkpt>
      <trkpt lat="50.702134966850281" lon="4.309216970577836">
        <ele>122.3</ele>
        <time>1970-01-01T02:33:23Z</time>
      </trkpt>
      <trkpt lat="50.702065983787179" lon="4.309213031083345">
        <ele>122.40000000000001</ele>
        <time>1970-01-01T02:33:27Z</time>
      </trkpt>
      <trkpt lat="50.701871020719409" lon="4.309657020494342">
        <ele>122.3</ele>
        <time>1970-01-01T02:33:40Z</time>
      </trkpt>
      <trkpt lat="50.701353019103408" lon="4.310282981023192">
        <ele>122.2</ele>
        <time>1970-01-01T02:33:54Z</time>
      </trkpt>
      <trkpt lat="50.700446264818311" lon="4.311747215688229">
        <ele>119.1875</ele>
      </trkpt>
      <trkpt lat="50.701184375211596" lon="4.312882460653782">
        <ele>121.03515625</ele>
      </trkpt>
      <trkpt lat="50.70176012814045" lon="4.313506241887808">
        <ele>121.51953125</ele>
      </trkpt>
      <trkpt lat="50.703019592911005" lon="4.314952539280057">
        <ele>122.265625</ele>
      </trkpt>
      <trkpt lat="50.703865578398108" lon="4.316115863621235">
        <ele>124.84765625</ele>
      </trkpt>
      <trkpt lat="50.702020302414894" lon="4.320160383358598">
        <ele>120.3515625</ele>
      </trkpt>
      <trkpt lat="50.700784139335155" lon="4.322837814688683">
        <ele>101.4765625</ele>
      </trkpt>
      <trkpt lat="50.699905715882778" lon="4.324348066002131">
        <ele>106.265625</ele>
      </trkpt>
      <trkpt lat="50.699547976255417" lon="4.325543744489551">
        <ele>107.89453125</ele>
      </trkpt>
      <trkpt lat="50.699422834441066" lon="4.326056046411395">
        <ele>106.09765625</ele>
      </trkpt>
      <trkpt lat="50.699423924088478" lon="4.326909240335226">
        <ele>104.89453125</ele>
      </trkpt>
      <trkpt lat="50.699461475014687" lon="4.328103577718139">
        <ele>94.37109375</ele>
      </trkpt>
      <trkpt lat="50.699462229385972" lon="4.328700872138143">
        <ele>92.1171875</ele>
      </trkpt>
      <trkpt lat="50.699211359024048" lon="4.329213593155146">
        <ele>89.4765625</ele>
      </trkpt>
      <trkpt lat="50.699085798114538" lon="4.329356253147125">
        <ele>88.5859375</ele>
      </trkpt>
      <trkpt lat="50.699140448123217" lon="4.329924881458283">
        <ele>90.44921875</ele>
      </trkpt>
      <trkpt lat="50.698997033759952" lon="4.330209698528051">
        <ele>89.24609375</ele>
      </trkpt>
      <trkpt lat="50.698907934129238" lon="4.330750331282616">
        <ele>88.2734375</ele>
      </trkpt>
      <trkpt lat="50.698980437591672" lon="4.331205217167735">
        <ele>88.68359375</ele>
      </trkpt>
      <trkpt lat="50.698980772867799" lon="4.331489615142345">
        <ele>88.34765625</ele>
      </trkpt>
      <trkpt lat="50.69908881559968" lon="4.331659851595759">
        <ele>89.5859375</ele>
      </trkpt>
      <trkpt lat="50.699268523603678" lon="4.331687763333321">
        <ele>92.13671875</ele>
      </trkpt>
      <trkpt lat="50.69941227324307" lon="4.331744173541665">
        <ele>94.19921875</ele>
      </trkpt>
      <trkpt lat="50.699520986527205" lon="4.332426376640797">
        <ele>95.38671875</ele>
      </trkpt>
      <trkpt lat="50.699774287641048" lon="4.333790699020028">
        <ele>95.40234375</ele>
      </trkpt>
      <trkpt lat="50.700278962031007" lon="4.335040356963873">
        <ele>91.3515625</ele>
      </trkpt>
      <trkpt lat="50.701034842059016" lon="4.336004862561822">
        <ele>93.23046875</ele>
      </trkpt>
      <trkpt lat="50.701880576089025" lon="4.337054444476962">
        <ele>95.9453125</ele>
      </trkpt>
      <trkpt lat="50.702600330114365" lon="4.337876876816154">
        <ele>100.8203125</ele>
      </trkpt>
      <trkpt lat="50.70265481248498" lon="4.338331678882241">
        <ele>100.3125</ele>
      </trkpt>
      <trkpt lat="50.703176837414503" lon="4.339097868651152">
        <ele>99.78515625</ele>
      </trkpt>
      <trkpt lat="50.70384269580245" lon="4.33994896709919">
        <ele>102.36328125</ele>
      </trkpt>
      <trkpt lat="50.704239076003432" lon="4.340772405266762">
        <ele>104.3203125</ele>
      </trkpt>
      <trkpt lat="50.704437727108598" lon="4.341568099334836">
        <ele>102.31640625</ele>
      </trkpt>
      <trkpt lat="50.704672336578369" lon="4.34239212423563">
        <ele>107.671875</ele>
      </trkpt>
      <trkpt lat="50.705157900229096" lon="4.34285975061357">
        <ele>114.16015625</ele>
      </trkpt>
      <trkpt lat="50.705382451415062" lon="4.34278791770339">
        <ele>114.65625</ele>
      </trkpt>
      <trkpt lat="50.705966921523213" lon="4.34321254491806">
        <ele>117.9609375</ele>
      </trkpt>
      <trkpt lat="50.7062819134444" lon="4.343709256500006">
        <ele>119.69140625</ele>
      </trkpt>
      <trkpt lat="50.705968681722879" lon="4.344563456252217">
        <ele>119.70703125</ele>
      </trkpt>
      <trkpt lat="50.70543073117733" lon="4.345418410375714">
        <ele>120.671875</ele>
      </trkpt>
      <trkpt lat="50.705297039821744" lon="4.346201028674841">
        <ele>121.03515625</ele>
      </trkpt>
      <trkpt lat="50.706375623121858" lon="4.346695141866803">
        <ele>121.0234375</ele>
      </trkpt>
      <trkpt lat="50.70736376568675" lon="4.346691956743598">
        <ele>120.671875</ele>
      </trkpt>
      <trkpt lat="50.708217127248645" lon="4.346618028357625">
        <ele>119.9375</ele>
      </trkpt>
      <trkpt lat="50.709205605089664" lon="4.34689924120903">
        <ele>120.9375</ele>
      </trkpt>
      <trkpt lat="50.710689285770059" lon="4.348031971603632">
        <ele>124.84375</ele>
      </trkpt>
      <trkpt lat="50.711363358423114" lon="4.348243111744523">
        <ele>122.20703125</ele>
      </trkpt>
      <trkpt lat="50.712127285078168" lon="4.348524995148182">
        <ele>121.1875</ele>
      </trkpt>
      <trkpt lat="50.713116182014346" lon="4.349090605974197">
        <ele>119.79296875</ele>
      </trkpt>
      <trkpt lat="50.714060571044683" lon="4.350011860951781">
        <ele>121.6328125</ele>
      </trkpt>
      <trkpt lat="50.714600449427962" lon="4.350649975240231">
        <ele>124.4609375</ele>
      </trkpt>
      <trkpt lat="50.715185422450304" lon="4.351501241326332">
        <ele>125.37890625</ele>
      </trkpt>
      <trkpt lat="50.715368650853634" lon="4.354202477261424">
        <ele>125.1171875</ele>
      </trkpt>
      <trkpt lat="50.716090500354767" lon="4.356688717380166">
        <ele>120.04296875</ele>
      </trkpt>
      <trkpt lat="50.716454107314348" lon="4.359958162531257">
        <ele>114.37890625</ele>
      </trkpt>
      <trkpt lat="50.71672584861517" lon="4.36166362836957">
        <ele>112.97265625</ele>
      </trkpt>
      <trkpt lat="50.716908238828182" lon="4.363796068355441">
        <ele>109.1328125</ele>
      </trkpt>
      <trkpt lat="50.716909747570753" lon="4.364933660253882">
        <ele>103.6796875</ele>
      </trkpt>
      <trkpt lat="50.716687962412834" lon="4.367067441344261">
        <ele>102.16796875</ele>
      </trkpt>
      <trkpt lat="50.716601712629199" lon="4.369840677827597">
        <ele>99.01953125</ele>
      </trkpt>
      <trkpt lat="50.716513032093644" lon="4.370694123208523">
        <ele>99.69140625</ele>
      </trkpt>
      <trkpt lat="50.716290073469281" lon="4.371974710375071">
        <ele>99.453125</ele>
      </trkpt>
      <trkpt lat="50.716246068477631" lon="4.372685831040144">
        <ele>100.50390625</ele>
      </trkpt>
      <trkpt lat="50.718087321147323" lon="4.372466560453177">
        <ele>107.65625</ele>
      </trkpt>
      <trkpt lat="50.7195701636374" lon="4.372888337820768">
        <ele>107.015625</ele>
      </trkpt>
      <trkpt lat="50.721141938120127" lon="4.372698403894901">
        <ele>105.21484375</ele>
      </trkpt>
      <trkpt lat="50.722668701782823" lon="4.37240906059742">
        <ele>112.20703125</ele>
      </trkpt>
      <trkpt lat="50.72437584400177" lon="4.372687842696905">
        <ele>113.59375</ele>
      </trkpt>
      <trkpt lat="50.725857932120562" lon="4.372583404183388">
        <ele>116.6484375</ele>
      </trkpt>
      <trkpt lat="50.726846074685454" lon="4.372580135241151">
        <ele>114</ele>
      </trkpt>
      <trkpt lat="50.727564822882414" lon="4.372648866847158">
        <ele>114.66796875</ele>
      </trkpt>
      <trkpt lat="50.728462859988213" lon="4.372432697564364">
        <ele>118.953125</ele>
      </trkpt>
      <trkpt lat="50.729360645636916" lon="4.372031707316637">
        <ele>123.359375</ele>
      </trkpt>
      <trkpt lat="50.729905217885971" lon="4.376296000555158">
        <ele>119.22265625</ele>
      </trkpt>
      <trkpt lat="50.730763524770737" lon="4.38006148673594">
        <ele>119.2421875</ele>
      </trkpt>
      <trkpt lat="50.731487805023789" lon="4.384396271780133">
        <ele>122.09765625</ele>
      </trkpt>
      <trkpt lat="50.732033215463161" lon="4.389300439506769">
        <ele>123.609375</ele>
      </trkpt>
      <trkpt lat="50.732083087787032" lon="4.393139770254493">
        <ele>129.6640625</ele>
      </trkpt>
      <trkpt lat="50.731594506651163" lon="4.397336253896356">
        <ele>130.98046875</ele>
      </trkpt>
      <trkpt lat="50.731012551113963" lon="4.398831333965063">
        <ele>131.12890625</ele>
      </trkpt>
      <trkpt lat="50.729983169585466" lon="4.401678666472435">
        <ele>126.984375</ele>
      </trkpt>
      <trkpt lat="50.728637957945466" lon="4.405438620597124">
        <ele>124.54296875</ele>
      </trkpt>
      <trkpt lat="50.728609375655651" lon="4.40557231195271">
        <ele>126.40000000000001</ele>
        <time>1970-01-01T03:14:44Z</time>
      </trkpt>
      <trkpt lat="50.728510972112417" lon="4.40614496357739">
        <ele>126.7</ele>
        <time>1970-01-01T03:14:50Z</time>
      </trkpt>
      <trkpt lat="50.730397989973426" lon="4.410832962021232">
        <ele>119.59999999999999</ele>
        <time>1970-01-01T03:15:44Z</time>
      </trkpt>
      <trkpt lat="50.730725973844528" lon="4.411507034674287">
        <ele>117</ele>
        <time>1970-01-01T03:15:51Z</time>
      </trkpt>
      <trkpt lat="50.73139501735568" lon="4.413203028962016">
        <ele>109.3</ele>
        <time>1970-01-01T03:16:10Z</time>
      </trkpt>
      <trkpt lat="50.734041016548872" lon="4.419489959254861">
        <ele>119.2</ele>
        <time>1970-01-01T03:18:09Z</time>
      </trkpt>
      <trkpt lat="50.734664965420961" lon="4.420612966641784">
        <ele>122.5</ele>
        <time>1970-01-01T03:18:28Z</time>
      </trkpt>
      <trkpt lat="50.734783988445997" lon="4.42101001739502">
        <ele>123.8</ele>
        <time>1970-01-01T03:18:36Z</time>
      </trkpt>
      <trkpt lat="50.735272988677025" lon="4.422187004238367">
        <ele>124.5</ele>
        <time>1970-01-01T03:18:56Z</time>
      </trkpt>
      <trkpt lat="50.735430987551808" lon="4.422460002824664">
        <ele>124.90000000000001</ele>
        <time>1970-01-01T03:19:01Z</time>
      </trkpt>
      <trkpt lat="50.735836001113057" lon="4.422917990013957">
        <ele>125.40000000000001</ele>
        <time>1970-01-01T03:19:12Z</time>
      </trkpt>
      <trkpt lat="50.736346039921045" lon="4.42324697971344">
        <ele>125.40000000000001</ele>
        <time>1970-01-01T03:19:25Z</time>
      </trkpt>
      <trkpt lat="50.736458022147417" lon="4.423042964190245">
        <ele>125.3</ele>
        <time>1970-01-01T03:19:32Z</time>
      </trkpt>
      <trkpt lat="50.736995972692966" lon="4.421383012086153">
        <ele>125.59999999999999</ele>
        <time>1970-01-01T03:19:54Z</time>
      </trkpt>
      <trkpt lat="50.737120024859905" lon="4.420782029628754">
        <ele>126.2</ele>
        <time>1970-01-01T03:20:02Z</time>
      </trkpt>
      <trkpt lat="50.737297972664237" lon="4.419085029512644">
        <ele>127.90000000000001</ele>
        <time>1970-01-01T03:20:24Z</time>
      </trkpt>
      <trkpt lat="50.737611036747694" lon="4.417132968083024">
        <ele>129.40000000000001</ele>
        <time>1970-01-01T03:20:51Z</time>
      </trkpt>
      <trkpt lat="50.737859979271889" lon="4.415954975411296">
        <ele>129.69999999999999</ele>
        <time>1970-01-01T03:21:07Z</time>
      </trkpt>
      <trkpt lat="50.738002974539995" lon="4.415647024288774">
        <ele>129.80000000000001</ele>
        <time>1970-01-01T03:21:11Z</time>
      </trkpt>
      <trkpt lat="50.73824898339808" lon="4.4151880312711">
        <ele>131.30000000000001</ele>
        <time>1970-01-01T03:21:51Z</time>
      </trkpt>
      <trkpt lat="50.738720968365669" lon="4.4148029666394">
        <ele>134.30000000000001</ele>
        <time>1970-01-01T03:22:04Z</time>
      </trkpt>
      <trkpt lat="50.739355981349945" lon="4.41450297832489">
        <ele>136.30000000000001</ele>
        <time>1970-01-01T03:22:19Z</time>
      </trkpt>
      <trkpt lat="50.740045979619026" lon="4.41454203799367">
        <ele>135.90000000000001</ele>
        <time>1970-01-01T03:22:33Z</time>
      </trkpt>
      <trkpt lat="50.740813007578254" lon="4.413947006687522">
        <ele>131.5</ele>
        <time>1970-01-01T03:22:45Z</time>
      </trkpt>
      <trkpt lat="50.741138979792595" lon="4.413515003398061">
        <ele>128.90000000000001</ele>
        <time>1970-01-01T03:22:50Z</time>
      </trkpt>
      <trkpt lat="50.741739962249994" lon="4.412887031212449">
        <ele>126.5</ele>
        <time>1970-01-01T03:22:58Z</time>
      </trkpt>
      <trkpt lat="50.741967028006911" lon="4.412517976015806">
        <ele>126.5</ele>
        <time>1970-01-01T03:23:02Z</time>
      </trkpt>
      <trkpt lat="50.74224497191608" lon="4.410444963723421">
        <ele>127.8</ele>
        <time>1970-01-01T03:23:24Z</time>
      </trkpt>
      <trkpt lat="50.742218988016248" lon="4.40878501161933">
        <ele>133.30000000000001</ele>
        <time>1970-01-01T03:23:51Z</time>
      </trkpt>
      <trkpt lat="50.742248995229602" lon="4.408664982765913">
        <ele>133.80000000000001</ele>
        <time>1970-01-01T03:23:54Z</time>
      </trkpt>
      <trkpt lat="50.742683010175824" lon="4.408225016668439">
        <ele>135.19999999999999</ele>
        <time>1970-01-01T03:24:07Z</time>
      </trkpt>
      <trkpt lat="50.743022980168462" lon="4.407680025324225">
        <ele>135.30000000000001</ele>
        <time>1970-01-01T03:24:15Z</time>
      </trkpt>
      <trkpt lat="50.743252979591489" lon="4.407188007608056">
        <ele>135.40000000000001</ele>
        <time>1970-01-01T03:24:21Z</time>
      </trkpt>
      <trkpt lat="50.743608037009835" lon="4.405995011329651">
        <ele>134.5</ele>
        <time>1970-01-01T03:24:36Z</time>
      </trkpt>
      <trkpt lat="50.743763018399477" lon="4.405223038047552">
        <ele>133.59999999999999</ele>
        <time>1970-01-01T03:24:44Z</time>
      </trkpt>
      <trkpt lat="50.744143975898623" lon="4.404255012050271">
        <ele>131.69999999999999</ele>
        <time>1970-01-01T03:24:55Z</time>
      </trkpt>
      <trkpt lat="50.744321001693606" lon="4.403991987928748">
        <ele>133.09999999999999</ele>
        <time>1970-01-01T03:24:59Z</time>
      </trkpt>
      <trkpt lat="50.744892982766032" lon="4.403537018224597">
        <ele>135.09999999999999</ele>
        <time>1970-01-01T03:25:11Z</time>
      </trkpt>
      <trkpt lat="50.745645007118583" lon="4.402381991967559">
        <ele>132</ele>
        <time>1970-01-01T03:25:28Z</time>
      </trkpt>
      <trkpt lat="50.746024958789349" lon="4.40161001868546">
        <ele>132.09999999999999</ele>
        <time>1970-01-01T03:25:38Z</time>
      </trkpt>
      <trkpt lat="50.746711017563939" lon="4.400552976876497">
        <ele>130.59999999999999</ele>
        <time>1970-01-01T03:25:52Z</time>
      </trkpt>
      <trkpt lat="50.747894961386919" lon="4.398400001227856">
        <ele>131.19999999999999</ele>
        <time>1970-01-01T03:26:18Z</time>
      </trkpt>
      <trkpt lat="50.747966039925814" lon="4.398175030946732">
        <ele>130.80000000000001</ele>
        <time>1970-01-01T03:26:20Z</time>
      </trkpt>
      <trkpt lat="50.748688979074359" lon="4.396818000823259">
        <ele>130.19999999999999</ele>
        <time>1970-01-01T03:26:38Z</time>
      </trkpt>
      <trkpt lat="50.748885031789541" lon="4.396299999207258">
        <ele>130.30000000000001</ele>
        <time>1970-01-01T03:26:48Z</time>
      </trkpt>
      <trkpt lat="50.748828034847975" lon="4.396115010604262">
        <ele>130.30000000000001</ele>
        <time>1970-01-01T03:26:52Z</time>
      </trkpt>
      <trkpt lat="50.748875979334116" lon="4.396192040294409">
        <ele>130.30000000000001</ele>
        <time>1970-01-01T03:26:54Z</time>
      </trkpt>
      <trkpt lat="50.748962983489037" lon="4.397074989974499">
        <ele>129.40000000000001</ele>
        <time>1970-01-01T03:27:05Z</time>
      </trkpt>
      <trkpt lat="50.749437985941768" lon="4.398158015683293">
        <ele>127.7</ele>
        <time>1970-01-01T03:27:19Z</time>
      </trkpt>
      <trkpt lat="50.74967997148633" lon="4.398552970960736">
        <ele>127</ele>
        <time>1970-01-01T03:27:24Z</time>
      </trkpt>
      <trkpt lat="50.750022958964109" lon="4.399374984204769">
        <ele>125.40000000000001</ele>
        <time>1970-01-01T03:27:33Z</time>
      </trkpt>
      <trkpt lat="50.750959971919656" lon="4.400923037901521">
        <ele>122.09999999999999</ele>
        <time>1970-01-01T03:27:52Z</time>
      </trkpt>
      <trkpt lat="50.752133019268513" lon="4.402321977540851">
        <ele>112.40000000000001</ele>
        <time>1970-01-01T03:28:09Z</time>
      </trkpt>
      <trkpt lat="50.75230099260807" lon="4.403005018830299">
        <ele>112.3</ele>
        <time>1970-01-01T03:28:15Z</time>
      </trkpt>
      <trkpt lat="50.752288000658154" lon="4.403365021571517">
        <ele>113</ele>
        <time>1970-01-01T03:28:19Z</time>
      </trkpt>
      <trkpt lat="50.752205019816756" lon="4.403732987120748">
        <ele>114.3</ele>
        <time>1970-01-01T03:28:24Z</time>
      </trkpt>
      <trkpt lat="50.752125978469849" lon="4.404570003971458">
        <ele>117.40000000000001</ele>
        <time>1970-01-01T03:28:42Z</time>
      </trkpt>
      <trkpt lat="50.752197979018092" lon="4.405093034729362">
        <ele>119.5</ele>
        <time>1970-01-01T03:28:52Z</time>
      </trkpt>
      <trkpt lat="50.752167971804738" lon="4.405367039144039">
        <ele>120.5</ele>
        <time>1970-01-01T03:28:56Z</time>
      </trkpt>
      <trkpt lat="50.752369975671172" lon="4.405761994421482">
        <ele>121.5</ele>
        <time>1970-01-01T03:29:06Z</time>
      </trkpt>
      <trkpt lat="50.752896023914218" lon="4.406512007117271">
        <ele>122</ele>
        <time>1970-01-01T03:29:21Z</time>
      </trkpt>
      <trkpt lat="50.752959977835417" lon="4.406687021255493">
        <ele>122.09999999999999</ele>
        <time>1970-01-01T03:29:24Z</time>
      </trkpt>
      <trkpt lat="50.752955032512546" lon="4.406918026506901">
        <ele>122.2</ele>
        <time>1970-01-01T03:29:27Z</time>
      </trkpt>
      <trkpt lat="50.75307103805244" lon="4.40756200812757">
        <ele>123.3</ele>
        <time>1970-01-01T03:29:38Z</time>
      </trkpt>
      <trkpt lat="50.753293996676803" lon="4.408204983919859">
        <ele>124.2</ele>
        <time>1970-01-01T03:29:48Z</time>
      </trkpt>
      <trkpt lat="50.75343799777329" lon="4.408479994162917">
        <ele>124.5</ele>
        <time>1970-01-01T03:29:53Z</time>
      </trkpt>
      <trkpt lat="50.753598008304834" lon="4.409273006021977">
        <ele>125.2</ele>
        <time>1970-01-01T03:30:04Z</time>
      </trkpt>
      <trkpt lat="50.753662968054414" lon="4.410201972350478">
        <ele>125.3</ele>
        <time>1970-01-01T03:30:17Z</time>
      </trkpt>
      <trkpt lat="50.754097988829017" lon="4.411723036319017">
        <ele>123</ele>
        <time>1970-01-01T03:30:37Z</time>
      </trkpt>
      <trkpt lat="50.754250036552548" lon="4.41278301179409">
        <ele>120</ele>
        <time>1970-01-01T03:30:48Z</time>
      </trkpt>
      <trkpt lat="50.754367969930172" lon="4.4131900370121">
        <ele>119.2</ele>
        <time>1970-01-01T03:30:52Z</time>
      </trkpt>
      <trkpt lat="50.754630994051695" lon="4.413665039464831">
        <ele>118.8</ele>
        <time>1970-01-01T03:30:58Z</time>
      </trkpt>
      <trkpt lat="50.754725961014628" lon="4.413971984758973">
        <ele>118.7</ele>
        <time>1970-01-01T03:31:02Z</time>
      </trkpt>
      <trkpt lat="50.755374971777201" lon="4.414892988279462">
        <ele>118.2</ele>
        <time>1970-01-01T03:31:14Z</time>
      </trkpt>
      <trkpt lat="50.755580998957157" lon="4.415302025154233">
        <ele>117.3</ele>
        <time>1970-01-01T03:31:18Z</time>
      </trkpt>
      <trkpt lat="50.757117988541722" lon="4.417277975007892">
        <ele>112.7</ele>
        <time>1970-01-01T03:31:45Z</time>
      </trkpt>
      <trkpt lat="50.757340025156736" lon="4.417664967477322">
        <ele>112.3</ele>
        <time>1970-01-01T03:31:50Z</time>
      </trkpt>
      <trkpt lat="50.757475979626179" lon="4.418152961879969">
        <ele>111.09999999999999</ele>
        <time>1970-01-01T03:31:55Z</time>
      </trkpt>
      <trkpt lat="50.757862972095609" lon="4.418908003717661">
        <ele>109.3</ele>
        <time>1970-01-01T03:32:03Z</time>
      </trkpt>
      <trkpt lat="50.758019965142012" lon="4.419436985626817">
        <ele>107.40000000000001</ele>
        <time>1970-01-01T03:32:10Z</time>
      </trkpt>
      <trkpt lat="50.758134964853525" lon="4.41963697783649">
        <ele>105.90000000000001</ele>
        <time>1970-01-01T03:32:16Z</time>
      </trkpt>
      <trkpt lat="50.758148962631822" lon="4.419781984761357">
        <ele>105.09999999999999</ele>
        <time>1970-01-01T03:32:18Z</time>
      </trkpt>
      <trkpt lat="50.758349960669875" lon="4.41998197697103">
        <ele>103.40000000000001</ele>
        <time>1970-01-01T03:43:32Z</time>
      </trkpt>
      <trkpt lat="50.758880032226443" lon="4.420050038024783">
        <ele>101.2</ele>
        <time>1970-01-01T03:43:49Z</time>
      </trkpt>
      <trkpt lat="50.759311029687524" lon="4.420329993590713">
        <ele>100.2</ele>
        <time>1970-01-01T03:44:00Z</time>
      </trkpt>
      <trkpt lat="50.75969098135829" lon="4.420456979423761">
        <ele>99.299999999999997</ele>
        <time>1970-01-01T03:44:05Z</time>
      </trkpt>
      <trkpt lat="50.760216023772955" lon="4.421210009604693">
        <ele>97.799999999999997</ele>
        <time>1970-01-01T03:44:22Z</time>
      </trkpt>
      <trkpt lat="50.76065800152719" lon="4.422026993706822">
        <ele>96.599999999999994</ele>
        <time>1970-01-01T03:44:33Z</time>
      </trkpt>
      <trkpt lat="50.761127974838018" lon="4.422587994486094">
        <ele>96.099999999999994</ele>
        <time>1970-01-01T03:44:43Z</time>
      </trkpt>
      <trkpt lat="50.761288991197944" lon="4.422931987792254">
        <ele>96</ele>
        <time>1970-01-01T03:44:49Z</time>
      </trkpt>
      <trkpt lat="50.761820990592241" lon="4.423668002709746">
        <ele>96.5</ele>
        <time>1970-01-01T03:45:00Z</time>
      </trkpt>
      <trkpt lat="50.76199097558856" lon="4.423994980752468">
        <ele>96.5</ele>
        <time>1970-01-01T03:45:06Z</time>
      </trkpt>
      <trkpt lat="50.762158026918769" lon="4.424175024032593">
        <ele>96.400000000000006</ele>
        <time>1970-01-01T03:45:10Z</time>
      </trkpt>
      <trkpt lat="50.762495985254645" lon="4.42406203597784">
        <ele>96.900000000000006</ele>
        <time>1970-01-01T03:45:18Z</time>
      </trkpt>
      <trkpt lat="50.763251027092338" lon="4.424187010154128">
        <ele>101</ele>
        <time>1970-01-01T03:45:40Z</time>
      </trkpt>
      <trkpt lat="50.763496030122042" lon="4.423962961882353">
        <ele>102.09999999999999</ele>
        <time>1970-01-01T03:45:48Z</time>
      </trkpt>
      <trkpt lat="50.763572975993156" lon="4.423655010759831">
        <ele>101.8</ele>
        <time>1970-01-01T03:45:53Z</time>
      </trkpt>
      <trkpt lat="50.763457976281643" lon="4.422712968662381">
        <ele>101.90000000000001</ele>
        <time>1970-01-01T03:46:07Z</time>
      </trkpt>
      <trkpt lat="50.763365020975471" lon="4.422307033091784">
        <ele>101.59999999999999</ele>
        <time>1970-01-01T03:46:14Z</time>
      </trkpt>
      <trkpt lat="50.763368038460612" lon="4.422069992870092">
        <ele>100.7</ele>
        <time>1970-01-01T03:46:18Z</time>
      </trkpt>
      <trkpt lat="50.763308024033904" lon="4.421752989292145">
        <ele>98.900000000000006</ele>
        <time>1970-01-01T03:46:26Z</time>
      </trkpt>
      <trkpt lat="50.763393016532063" lon="4.421468004584312">
        <ele>98</ele>
        <time>1970-01-01T03:46:33Z</time>
      </trkpt>
      <trkpt lat="50.763832982629538" lon="4.421212021261454">
        <ele>100</ele>
        <time>1970-01-01T03:46:51Z</time>
      </trkpt>
      <trkpt lat="50.763887967914343" lon="4.420654959976673">
        <ele>103.59999999999999</ele>
        <time>1970-01-01T03:47:04Z</time>
      </trkpt>
      <trkpt lat="50.763787971809506" lon="4.419764969497919">
        <ele>105.3</ele>
        <time>1970-01-01T03:47:20Z</time>
      </trkpt>
      <trkpt lat="50.763351023197174" lon="4.417948024347425">
        <ele>99.099999999999994</ele>
        <time>1970-01-01T03:47:41Z</time>
      </trkpt>
      <trkpt lat="50.763187995180488" lon="4.417482996359468">
        <ele>98.099999999999994</ele>
        <time>1970-01-01T03:47:46Z</time>
      </trkpt>
      <trkpt lat="50.762735037133098" lon="4.415457006543875">
        <ele>98.099999999999994</ele>
        <time>1970-01-01T03:48:11Z</time>
      </trkpt>
      <trkpt lat="50.762513000518084" lon="4.414762984961271">
        <ele>98.400000000000006</ele>
        <time>1970-01-01T03:48:20Z</time>
      </trkpt>
      <trkpt lat="50.762117961421609" lon="4.413051987066865">
        <ele>99.200000000000003</ele>
        <time>1970-01-01T03:48:41Z</time>
      </trkpt>
      <trkpt lat="50.761825013905764" lon="4.412080021575093">
        <ele>100.09999999999999</ele>
        <time>1970-01-01T03:48:56Z</time>
      </trkpt>
      <trkpt lat="50.761553021147847" lon="4.41147300414741">
        <ele>100.59999999999999</ele>
        <time>1970-01-01T03:49:03Z</time>
      </trkpt>
      <trkpt lat="50.761347999796271" lon="4.410791974514723">
        <ele>101.5</ele>
        <time>1970-01-01T03:49:12Z</time>
      </trkpt>
      <trkpt lat="50.760665964335203" lon="4.409424969926477">
        <ele>102</ele>
        <time>1970-01-01T03:49:33Z</time>
      </trkpt>
      <trkpt lat="50.760620031505823" lon="4.409215003252029">
        <ele>102</ele>
        <time>1970-01-01T03:49:35Z</time>
      </trkpt>
      <trkpt lat="50.759960962459445" lon="4.407741967588663">
        <ele>102.7</ele>
        <time>1970-01-01T03:49:56Z</time>
      </trkpt>
      <trkpt lat="50.759715037420392" lon="4.407075019553304">
        <ele>103.09999999999999</ele>
        <time>1970-01-01T03:50:05Z</time>
      </trkpt>
      <trkpt lat="50.759559972211719" lon="4.406790034845471">
        <ele>103.3</ele>
        <time>1970-01-01T03:50:09Z</time>
      </trkpt>
      <trkpt lat="50.759017998352647" lon="4.405252039432526">
        <ele>106.3</ele>
        <time>1970-01-01T03:50:33Z</time>
      </trkpt>
      <trkpt lat="50.75921799056232" lon="4.405039977282286">
        <ele>106.7</ele>
        <time>1970-01-01T03:50:40Z</time>
      </trkpt>
      <trkpt lat="50.760203031823039" lon="4.40459799952805">
        <ele>110.2</ele>
        <time>1970-01-01T03:51:08Z</time>
      </trkpt>
      <trkpt lat="50.761176003143191" lon="4.403668027371168">
        <ele>111.59999999999999</ele>
        <time>1970-01-01T03:51:32Z</time>
      </trkpt>
      <trkpt lat="50.761681012809277" lon="4.403037037700415">
        <ele>113.90000000000001</ele>
        <time>1970-01-01T03:51:47Z</time>
      </trkpt>
      <trkpt lat="50.762234972789884" lon="4.402179988101125">
        <ele>118.2</ele>
        <time>1970-01-01T03:52:09Z</time>
      </trkpt>
      <trkpt lat="50.762997977435589" lon="4.401156976819038">
        <ele>121.7</ele>
        <time>1970-01-01T03:52:35Z</time>
      </trkpt>
      <trkpt lat="50.763478009030223" lon="4.400630006566644">
        <ele>122.90000000000001</ele>
        <time>1970-01-01T03:52:51Z</time>
      </trkpt>
      <trkpt lat="50.76624495908618" lon="4.398018037900329">
        <ele>113.90000000000001</ele>
        <time>1970-01-01T03:53:40Z</time>
      </trkpt>
      <trkpt lat="50.766620971262455" lon="4.397582011297345">
        <ele>116.5</ele>
        <time>1970-01-01T03:53:47Z</time>
      </trkpt>
      <trkpt lat="50.767363021150231" lon="4.396935012191534">
        <ele>119.5</ele>
        <time>1970-01-01T03:54:07Z</time>
      </trkpt>
      <trkpt lat="50.767515990883112" lon="4.396727979183197">
        <ele>119.7</ele>
        <time>1970-01-01T03:54:12Z</time>
      </trkpt>
      <trkpt lat="50.768274972215295" lon="4.396094977855682">
        <ele>117.59999999999999</ele>
        <time>1970-01-01T03:54:26Z</time>
      </trkpt>
      <trkpt lat="50.769630996510386" lon="4.394782036542893">
        <ele>110.3</ele>
        <time>1970-01-01T03:54:46Z</time>
      </trkpt>
      <trkpt lat="50.769693022593856" lon="4.394663013517857">
        <ele>110.2</ele>
        <time>1970-01-01T03:54:48Z</time>
      </trkpt>
      <trkpt lat="50.769690005108714" lon="4.394527981057763">
        <ele>110.3</ele>
        <time>1970-01-01T03:54:50Z</time>
      </trkpt>
      <trkpt lat="50.769480960443616" lon="4.393839994445443">
        <ele>112.40000000000001</ele>
        <time>1970-01-01T03:55:00Z</time>
      </trkpt>
      <trkpt lat="50.769308041781187" lon="4.392354972660542">
        <ele>116.7</ele>
        <time>1970-01-01T03:55:22Z</time>
      </trkpt>
      <trkpt lat="50.768804959952831" lon="4.390595024451613">
        <ele>119.8</ele>
        <time>1970-01-01T03:55:48Z</time>
      </trkpt>
      <trkpt lat="50.768575966358185" lon="4.389936961233616">
        <ele>120.3</ele>
        <time>1970-01-01T03:55:57Z</time>
      </trkpt>
      <trkpt lat="50.768132982775569" lon="4.388305004686117">
        <ele>120.8</ele>
        <time>1970-01-01T03:56:17Z</time>
      </trkpt>
      <trkpt lat="50.768074980005622" lon="4.387863026931882">
        <ele>122.2</ele>
        <time>1970-01-01T03:56:23Z</time>
      </trkpt>
      <trkpt lat="50.768147986382246" lon="4.386906987056136">
        <ele>124.5</ele>
        <time>1970-01-01T03:56:38Z</time>
      </trkpt>
      <trkpt lat="50.76841302216053" lon="4.385073026642203">
        <ele>127</ele>
        <time>1970-01-01T03:57:06Z</time>
      </trkpt>
      <trkpt lat="50.768433976918459" lon="4.384613027796149">
        <ele>127.09999999999999</ele>
        <time>1970-01-01T03:57:13Z</time>
      </trkpt>
      <trkpt lat="50.768558029085398" lon="4.384153028950095">
        <ele>126.2</ele>
        <time>1970-01-01T03:57:19Z</time>
      </trkpt>
      <trkpt lat="50.768641009926796" lon="4.383496977388859">
        <ele>125.09999999999999</ele>
        <time>1970-01-01T03:57:26Z</time>
      </trkpt>
      <trkpt lat="50.768735976889729" lon="4.383167987689376">
        <ele>125.40000000000001</ele>
        <time>1970-01-01T03:57:31Z</time>
      </trkpt>
      <trkpt lat="50.768900010734797" lon="4.382864981889725">
        <ele>126.59999999999999</ele>
        <time>1970-01-01T03:57:39Z</time>
      </trkpt>
      <trkpt lat="50.769365960732102" lon="4.382888032123447">
        <ele>126.7</ele>
        <time>1970-01-01T03:57:49Z</time>
      </trkpt>
      <trkpt lat="50.769578022882342" lon="4.383030021563172">
        <ele>126.7</ele>
        <time>1970-01-01T03:57:58Z</time>
      </trkpt>
      <trkpt lat="50.769739961251616" lon="4.382977969944477">
        <ele>127</ele>
        <time>1970-01-01T03:59:10Z</time>
      </trkpt>
      <trkpt lat="50.770370028913021" lon="4.384410018101335">
        <ele>127.59999999999999</ele>
        <time>1970-01-01T03:59:35Z</time>
      </trkpt>
      <trkpt lat="50.770998001098633" lon="4.384972024708986">
        <ele>127</ele>
        <time>1970-01-01T03:59:48Z</time>
      </trkpt>
      <trkpt lat="50.771480966359377" lon="4.385566972196102">
        <ele>125.8</ele>
        <time>1970-01-01T03:59:58Z</time>
      </trkpt>
      <trkpt lat="50.772978980094194" lon="4.387006983160973">
        <ele>127.59999999999999</ele>
        <time>1970-01-01T04:00:30Z</time>
      </trkpt>
      <trkpt lat="50.773463035002351" lon="4.387236982584">
        <ele>130.19999999999999</ele>
        <time>1970-01-01T04:00:43Z</time>
      </trkpt>
      <trkpt lat="50.77419301494956" lon="4.387206975370646">
        <ele>133.59999999999999</ele>
        <time>1970-01-01T04:01:03Z</time>
      </trkpt>
      <trkpt lat="50.77470799908042" lon="4.387512998655438">
        <ele>133.80000000000001</ele>
        <time>1970-01-01T04:01:15Z</time>
      </trkpt>
      <trkpt lat="50.775017961859703" lon="4.387836959213018">
        <ele>133.90000000000001</ele>
        <time>1970-01-01T04:01:22Z</time>
      </trkpt>
      <trkpt lat="50.775818014517426" lon="4.387696981430054">
        <ele>133.69999999999999</ele>
        <time>1970-01-01T04:01:38Z</time>
      </trkpt>
      <trkpt lat="50.776432994753122" lon="4.387464970350266">
        <ele>133.90000000000001</ele>
        <time>1970-01-01T04:01:48Z</time>
      </trkpt>
      <trkpt lat="50.777153000235558" lon="4.387312000617385">
        <ele>133.5</ele>
        <time>1970-01-01T04:02:01Z</time>
      </trkpt>
      <trkpt lat="50.777906030416489" lon="4.387007988989353">
        <ele>132.69999999999999</ele>
        <time>1970-01-01T04:02:14Z</time>
      </trkpt>
      <trkpt lat="50.778182968497276" lon="4.386968007311225">
        <ele>133</ele>
        <time>1970-01-01T04:02:19Z</time>
      </trkpt>
      <trkpt lat="50.77844800427556" lon="4.387197000905871">
        <ele>133.09999999999999</ele>
        <time>1970-01-01T04:02:25Z</time>
      </trkpt>
      <trkpt lat="50.778742963448167" lon="4.387276964262128">
        <ele>132.80000000000001</ele>
        <time>1970-01-01T04:02:31Z</time>
      </trkpt>
      <trkpt lat="50.778951002284884" lon="4.387243017554283">
        <ele>132.40000000000001</ele>
        <time>1970-01-01T04:02:35Z</time>
      </trkpt>
      <trkpt lat="50.779363978654146" lon="4.386898018419743">
        <ele>131.5</ele>
        <time>1970-01-01T04:02:42Z</time>
      </trkpt>
      <trkpt lat="50.779907964169979" lon="4.386967001482844">
        <ele>131.69999999999999</ele>
        <time>1970-01-01T04:02:52Z</time>
      </trkpt>
      <trkpt lat="50.780113991349936" lon="4.38689298927784">
        <ele>131.90000000000001</ele>
        <time>1970-01-01T04:02:56Z</time>
      </trkpt>
      <trkpt lat="50.780280958861113" lon="4.386925008147955">
        <ele>132.09999999999999</ele>
        <time>1970-01-01T04:03:00Z</time>
      </trkpt>
      <trkpt lat="50.780569966882467" lon="4.386761980131269">
        <ele>132.5</ele>
        <time>1970-01-01T04:03:06Z</time>
      </trkpt>
      <trkpt lat="50.781102972105145" lon="4.386598030105233">
        <ele>132.59999999999999</ele>
        <time>1970-01-01T04:03:16Z</time>
      </trkpt>
      <trkpt lat="50.781385023146868" lon="4.386647986248136">
        <ele>132.40000000000001</ele>
        <time>1970-01-01T04:03:21Z</time>
      </trkpt>
      <trkpt lat="50.781722981482744" lon="4.386874968186021">
        <ele>131.59999999999999</ele>
        <time>1970-01-01T04:03:28Z</time>
      </trkpt>
      <trkpt lat="50.782412979751825" lon="4.387175040319562">
        <ele>129.80000000000001</ele>
        <time>1970-01-01T04:03:39Z</time>
      </trkpt>
      <trkpt lat="50.783210014924407" lon="4.387155007570982">
        <ele>128</ele>
        <time>1970-01-01T04:03:51Z</time>
      </trkpt>
      <trkpt lat="50.783537998795509" lon="4.387272018939257">
        <ele>126.59999999999999</ele>
        <time>1970-01-01T04:04:09Z</time>
      </trkpt>
      <trkpt lat="50.783459963276982" lon="4.387288028374314">
        <ele>126.5</ele>
        <time>1970-01-01T04:04:28Z</time>
      </trkpt>
      <trkpt lat="50.783440014347434" lon="4.387424988672137">
        <ele>126</ele>
        <time>1970-01-01T04:04:41Z</time>
      </trkpt>
      <trkpt lat="50.783632965758443" lon="4.387520039454103">
        <ele>125.2</ele>
        <time>1970-01-01T04:04:49Z</time>
      </trkpt>
      <trkpt lat="50.783756012097001" lon="4.387467987835407">
        <ele>124.90000000000001</ele>
        <time>1970-01-01T04:04:52Z</time>
      </trkpt>
      <trkpt lat="50.784848006442189" lon="4.387488020583987">
        <ele>121.90000000000001</ele>
        <time>1970-01-01T04:05:12Z</time>
      </trkpt>
      <trkpt lat="50.785317979753017" lon="4.387637972831726">
        <ele>121.5</ele>
        <time>1970-01-01T04:05:17Z</time>
      </trkpt>
      <trkpt lat="50.785656021907926" lon="4.387632021680474">
        <ele>121.7</ele>
        <time>1970-01-01T04:05:22Z</time>
      </trkpt>
      <trkpt lat="50.78573296777904" lon="4.387702010571957">
        <ele>121.8</ele>
        <time>1970-01-01T04:05:25Z</time>
      </trkpt>
      <trkpt lat="50.78547497279942" lon="4.388124961405993">
        <ele>121.40000000000001</ele>
        <time>1970-01-01T04:05:35Z</time>
      </trkpt>
      <trkpt lat="50.785470027476549" lon="4.388727033510804">
        <ele>121.3</ele>
        <time>1970-01-01T04:05:42Z</time>
      </trkpt>
      <trkpt lat="50.786171006038785" lon="4.390438031405211">
        <ele>116.7</ele>
        <time>1970-01-01T04:06:02Z</time>
      </trkpt>
      <trkpt lat="50.786754973232746" lon="4.391312012448907">
        <ele>113.7</ele>
        <time>1970-01-01T04:06:12Z</time>
      </trkpt>
      <trkpt lat="50.787010034546256" lon="4.39159800298512">
        <ele>112.5</ele>
        <time>1970-01-01T04:06:15Z</time>
      </trkpt>
      <trkpt lat="50.787114975973964" lon="4.391935039311647">
        <ele>111.7</ele>
        <time>1970-01-01T04:06:18Z</time>
      </trkpt>
      <trkpt lat="50.787225030362606" lon="4.392683040350676">
        <ele>110.3</ele>
        <time>1970-01-01T04:06:25Z</time>
      </trkpt>
      <trkpt lat="50.787180019542575" lon="4.392832992598414">
        <ele>109.90000000000001</ele>
        <time>1970-01-01T04:06:27Z</time>
      </trkpt>
      <trkpt lat="50.786900985985994" lon="4.39312300644815">
        <ele>108.90000000000001</ele>
        <time>1970-01-01T04:06:34Z</time>
      </trkpt>
      <trkpt lat="50.786927975714207" lon="4.393400028347969">
        <ele>108.5</ele>
        <time>1970-01-01T04:06:37Z</time>
      </trkpt>
      <trkpt lat="50.787081029266119" lon="4.39357697032392">
        <ele>107.90000000000001</ele>
        <time>1970-01-01T04:06:41Z</time>
      </trkpt>
      <trkpt lat="50.787848979234695" lon="4.393757013604045">
        <ele>104.8</ele>
        <time>1970-01-01T04:06:54Z</time>
      </trkpt>
      <trkpt lat="50.788149973377585" lon="4.394136965274811">
        <ele>103.2</ele>
        <time>1970-01-01T04:07:00Z</time>
      </trkpt>
      <trkpt lat="50.788650959730148" lon="4.395579993724823">
        <ele>98.5</ele>
        <time>1970-01-01T04:07:15Z</time>
      </trkpt>
      <trkpt lat="50.789181031286716" lon="4.396780030801892">
        <ele>96.5</ele>
        <time>1970-01-01T04:07:27Z</time>
      </trkpt>
      <trkpt lat="50.789485964924097" lon="4.397282022982836">
        <ele>96.900000000000006</ele>
        <time>1970-01-01T04:07:33Z</time>
      </trkpt>
      <trkpt lat="50.789919979870319" lon="4.398188022896648">
        <ele>98.400000000000006</ele>
        <time>1970-01-01T04:07:45Z</time>
      </trkpt>
      <trkpt lat="50.789989968761802" lon="4.398607034236193">
        <ele>99.400000000000006</ele>
        <time>1970-01-01T04:07:50Z</time>
      </trkpt>
      <trkpt lat="50.789975970983505" lon="4.398971982300282">
        <ele>100.2</ele>
        <time>1970-01-01T04:07:55Z</time>
      </trkpt>
      <trkpt lat="50.789828030392528" lon="4.399337014183402">
        <ele>101.3</ele>
        <time>1970-01-01T04:08:03Z</time>
      </trkpt>
      <trkpt lat="50.789315979927778" lon="4.399585034698248">
        <ele>102.40000000000001</ele>
        <time>1970-01-01T04:08:16Z</time>
      </trkpt>
      <trkpt lat="50.788349965587258" lon="4.399801958352327">
        <ele>101.59999999999999</ele>
        <time>1970-01-01T04:08:33Z</time>
      </trkpt>
      <trkpt lat="50.788175035268068" lon="4.399730041623116">
        <ele>101.40000000000001</ele>
        <time>1970-01-01T04:08:36Z</time>
      </trkpt>
      <trkpt lat="50.787638006731868" lon="4.399048006162047">
        <ele>101.7</ele>
        <time>1970-01-01T04:08:50Z</time>
      </trkpt>
      <trkpt lat="50.787097960710526" lon="4.398622959852219">
        <ele>99.299999999999997</ele>
        <time>1970-01-01T04:09:01Z</time>
      </trkpt>
      <trkpt lat="50.786766037344933" lon="4.398509971797466">
        <ele>98.700000000000003</ele>
        <time>1970-01-01T04:09:05Z</time>
      </trkpt>
      <trkpt lat="50.786327999085188" lon="4.398778025060892">
        <ele>106.40000000000001</ele>
        <time>1970-01-01T04:09:30Z</time>
      </trkpt>
      <trkpt lat="50.782191026955843" lon="4.402706958353519">
        <ele>111.7</ele>
        <time>1970-01-01T04:11:36Z</time>
      </trkpt>
      <trkpt lat="50.78190503641963" lon="4.403090011328459">
        <ele>109.09999999999999</ele>
        <time>1970-01-01T04:11:42Z</time>
      </trkpt>
      <trkpt lat="50.781765980646014" lon="4.403422018513084">
        <ele>104.7</ele>
        <time>1970-01-01T04:11:48Z</time>
      </trkpt>
      <trkpt lat="50.781426010653377" lon="4.403632991015911">
        <ele>101.8</ele>
        <time>1970-01-01T04:11:57Z</time>
      </trkpt>
      <trkpt lat="50.781343029811978" lon="4.403746984899044">
        <ele>102.59999999999999</ele>
        <time>1970-01-01T04:12:11Z</time>
      </trkpt>
      <trkpt lat="50.780732994899154" lon="4.403840024024248">
        <ele>111.3</ele>
        <time>1970-01-01T04:13:17Z</time>
      </trkpt>
      <trkpt lat="50.78053099103272" lon="4.404312008991838">
        <ele>113.59999999999999</ele>
        <time>1970-01-01T04:13:38Z</time>
      </trkpt>
      <trkpt lat="50.779228024184704" lon="4.405707009136677">
        <ele>126.09999999999999</ele>
        <time>1970-01-01T04:14:31Z</time>
      </trkpt>
      <trkpt lat="50.778959970921278" lon="4.405931979417801">
        <ele>128.59999999999999</ele>
        <time>1970-01-01T04:14:43Z</time>
      </trkpt>
      <trkpt lat="50.776920989155769" lon="4.408123008906841">
        <ele>131.09999999999999</ele>
        <time>1970-01-01T04:16:14Z</time>
      </trkpt>
      <trkpt lat="50.776695013046265" lon="4.40827002748847">
        <ele>131.59999999999999</ele>
        <time>1970-01-01T04:16:18Z</time>
      </trkpt>
      <trkpt lat="50.776069974526763" lon="4.408870004117489">
        <ele>132.19999999999999</ele>
        <time>1970-01-01T04:16:32Z</time>
      </trkpt>
      <trkpt lat="50.77526799403131" lon="4.409811962395906">
        <ele>130</ele>
        <time>1970-01-01T04:16:47Z</time>
      </trkpt>
      <trkpt lat="50.772532979026437" lon="4.412613026797772">
        <ele>113.8</ele>
        <time>1970-01-01T04:17:25Z</time>
      </trkpt>
      <trkpt lat="50.772157972678542" lon="4.413566971197724">
        <ele>113.2</ele>
        <time>1970-01-01T04:17:35Z</time>
      </trkpt>
      <trkpt lat="50.771897966042161" lon="4.413909958675504">
        <ele>112.5</ele>
        <time>1970-01-01T04:17:40Z</time>
      </trkpt>
      <trkpt lat="50.771621027961373" lon="4.414107017219067">
        <ele>111.8</ele>
        <time>1970-01-01T04:17:44Z</time>
      </trkpt>
      <trkpt lat="50.77118600718677" lon="4.414640022441745">
        <ele>110</ele>
        <time>1970-01-01T04:17:51Z</time>
      </trkpt>
      <trkpt lat="50.77103597112" lon="4.414904974400997">
        <ele>108.8</ele>
        <time>1970-01-01T04:17:54Z</time>
      </trkpt>
      <trkpt lat="50.770793985575438" lon="4.415779961273074">
        <ele>105.8</ele>
        <time>1970-01-01T04:18:01Z</time>
      </trkpt>
      <trkpt lat="50.7706059794873" lon="4.417013023048639">
        <ele>106.3</ele>
        <time>1970-01-01T04:18:10Z</time>
      </trkpt>
      <trkpt lat="50.770353013649583" lon="4.41823803819716">
        <ele>109.3</ele>
        <time>1970-01-01T04:18:25Z</time>
      </trkpt>
      <trkpt lat="50.769878011196852" lon="4.419979965314269">
        <ele>104.2</ele>
        <time>1970-01-01T04:18:43Z</time>
      </trkpt>
      <trkpt lat="50.769795030355453" lon="4.42015003412962">
        <ele>103.2</ele>
        <time>1970-01-01T04:18:45Z</time>
      </trkpt>
      <trkpt lat="50.768916020169854" lon="4.420829974114895">
        <ele>101.3</ele>
        <time>1970-01-01T04:19:00Z</time>
      </trkpt>
      <trkpt lat="50.767866019159555" lon="4.421824989840388">
        <ele>101.8</ele>
        <time>1970-01-01T04:19:29Z</time>
      </trkpt>
      <trkpt lat="50.765135027468204" lon="4.424121966585517">
        <ele>97.700000000000003</ele>
        <time>1970-01-01T04:20:22Z</time>
      </trkpt>
      <trkpt lat="50.764864962548018" lon="4.424518011510372">
        <ele>97.900000000000006</ele>
        <time>1970-01-01T04:20:30Z</time>
      </trkpt>
      <trkpt lat="50.764775024726987" lon="4.424799978733063">
        <ele>98.099999999999994</ele>
        <time>1970-01-01T04:20:33Z</time>
      </trkpt>
      <trkpt lat="50.764730013906956" lon="4.425316974520683">
        <ele>99</ele>
        <time>1970-01-01T04:20:41Z</time>
      </trkpt>
      <trkpt lat="50.764860017225146" lon="4.426541989669204">
        <ele>99.599999999999994</ele>
        <time>1970-01-01T04:21:00Z</time>
      </trkpt>
      <trkpt lat="50.765090016648173" lon="4.427082035690546">
        <ele>101.90000000000001</ele>
        <time>1970-01-01T04:21:08Z</time>
      </trkpt>
      <trkpt lat="50.7652129791677" lon="4.42717700265348">
        <ele>103.3</ele>
        <time>1970-01-01T04:21:12Z</time>
      </trkpt>
      <trkpt lat="50.766003979369998" lon="4.427108019590378">
        <ele>109.8</ele>
        <time>1970-01-01T04:21:41Z</time>
      </trkpt>
      <trkpt lat="50.766475964337587" lon="4.426907021552324">
        <ele>111.09999999999999</ele>
        <time>1970-01-01T04:21:53Z</time>
      </trkpt>
      <trkpt lat="50.76693001203239" lon="4.427067032083869">
        <ele>111.09999999999999</ele>
        <time>1970-01-01T04:22:04Z</time>
      </trkpt>
      <trkpt lat="50.767153976485133" lon="4.427282027900219">
        <ele>110.90000000000001</ele>
        <time>1970-01-01T04:22:08Z</time>
      </trkpt>
      <trkpt lat="50.768493991345167" lon="4.427977977320552">
        <ele>115.5</ele>
        <time>1970-01-01T04:22:37Z</time>
      </trkpt>
      <trkpt lat="50.768667999655008" lon="4.428170006722212">
        <ele>116.8</ele>
        <time>1970-01-01T04:22:41Z</time>
      </trkpt>
      <trkpt lat="50.769183989614248" lon="4.428390031680465">
        <ele>119.59999999999999</ele>
        <time>1970-01-01T04:22:58Z</time>
      </trkpt>
      <trkpt lat="50.769630996510386" lon="4.428262962028384">
        <ele>121.5</ele>
        <time>1970-01-01T04:23:09Z</time>
      </trkpt>
      <trkpt lat="50.770919965580106" lon="4.427682012319565">
        <ele>126.3</ele>
        <time>1970-01-01T04:23:48Z</time>
      </trkpt>
      <trkpt lat="50.771105960011482" lon="4.427658040076494">
        <ele>126</ele>
        <time>1970-01-01T04:23:53Z</time>
      </trkpt>
      <trkpt lat="50.771461017429829" lon="4.427851997315884">
        <ele>124.90000000000001</ele>
        <time>1970-01-01T04:24:02Z</time>
      </trkpt>
      <trkpt lat="50.772326029837132" lon="4.428590023890138">
        <ele>123.09999999999999</ele>
        <time>1970-01-01T04:24:19Z</time>
      </trkpt>
      <trkpt lat="50.773603012785316" lon="4.42848801612854">
        <ele>122</ele>
        <time>1970-01-01T04:24:40Z</time>
      </trkpt>
      <trkpt lat="50.774202989414334" lon="4.428769983351231">
        <ele>120.5</ele>
        <time>1970-01-01T04:24:50Z</time>
      </trkpt>
      <trkpt lat="50.774822998791933" lon="4.429465010762215">
        <ele>114.2</ele>
        <time>1970-01-01T04:24:58Z</time>
      </trkpt>
      <trkpt lat="50.775055009871721" lon="4.429631978273392">
        <ele>112.5</ele>
        <time>1970-01-01T04:25:01Z</time>
      </trkpt>
      <trkpt lat="50.775425992906094" lon="4.429689981043339">
        <ele>109.8</ele>
        <time>1970-01-01T04:25:05Z</time>
      </trkpt>
      <trkpt lat="50.776235014200211" lon="4.429480014368892">
        <ele>107</ele>
        <time>1970-01-01T04:25:14Z</time>
      </trkpt>
      <trkpt lat="50.776580013334751" lon="4.429202992469072">
        <ele>109.2</ele>
        <time>1970-01-01T04:25:23Z</time>
      </trkpt>
      <trkpt lat="50.776657965034246" lon="4.429216990247369">
        <ele>109.5</ele>
        <time>1970-01-01T04:25:26Z</time>
      </trkpt>
      <trkpt lat="50.776756033301353" lon="4.429342970252037">
        <ele>109.2</ele>
        <time>1970-01-01T04:25:29Z</time>
      </trkpt>
      <trkpt lat="50.777047974988818" lon="4.430015031248331">
        <ele>109</ele>
        <time>1970-01-01T04:25:39Z</time>
      </trkpt>
      <trkpt lat="50.777145959436893" lon="4.430506965145469">
        <ele>110.8</ele>
        <time>1970-01-01T04:25:48Z</time>
      </trkpt>
      <trkpt lat="50.777356009930372" lon="4.430909967049956">
        <ele>113.3</ele>
        <time>1970-01-01T04:25:59Z</time>
      </trkpt>
      <trkpt lat="50.777623979374766" lon="4.431734997779131">
        <ele>116.40000000000001</ele>
        <time>1970-01-01T04:26:26Z</time>
      </trkpt>
      <trkpt lat="50.777748031541705" lon="4.431987963616848">
        <ele>117.5</ele>
        <time>1970-01-01T04:26:36Z</time>
      </trkpt>
      <trkpt lat="50.778075009584427" lon="4.432993037626147">
        <ele>120</ele>
        <time>1970-01-01T04:27:00Z</time>
      </trkpt>
      <trkpt lat="50.77816997654736" lon="4.433011980727315">
        <ele>120</ele>
        <time>1970-01-01T04:27:09Z</time>
      </trkpt>
      <trkpt lat="50.778150027617812" lon="4.43297702819109">
        <ele>119.90000000000001</ele>
        <time>1970-01-01T04:27:14Z</time>
      </trkpt>
      <trkpt lat="50.778115997090936" lon="4.433181965723634">
        <ele>119.8</ele>
        <time>1970-01-01T04:27:20Z</time>
      </trkpt>
      <trkpt lat="50.778540959581733" lon="4.434398012235761">
        <ele>124.8</ele>
        <time>1970-01-01T04:27:47Z</time>
      </trkpt>
      <trkpt lat="50.778545988723636" lon="4.434519968926907">
        <ele>125.3</ele>
        <time>1970-01-01T04:27:50Z</time>
      </trkpt>
      <trkpt lat="50.778796020895243" lon="4.435111982747912">
        <ele>127.90000000000001</ele>
        <time>1970-01-01T04:28:03Z</time>
      </trkpt>
      <trkpt lat="50.779301030561328" lon="4.436712004244328">
        <ele>131.5</ele>
        <time>1970-01-01T04:28:30Z</time>
      </trkpt>
      <trkpt lat="50.780067974701524" lon="4.438643027096987">
        <ele>132.30000000000001</ele>
        <time>1970-01-01T04:28:59Z</time>
      </trkpt>
      <trkpt lat="50.780553035438061" lon="4.440182028338313">
        <ele>131</ele>
        <time>1970-01-01T04:29:19Z</time>
      </trkpt>
      <trkpt lat="50.780910020694137" lon="4.441024996340275">
        <ele>129.19999999999999</ele>
        <time>1970-01-01T04:29:29Z</time>
      </trkpt>
      <trkpt lat="50.781353004276752" lon="4.442514963448048">
        <ele>128.80000000000001</ele>
        <time>1970-01-01T04:29:47Z</time>
      </trkpt>
      <trkpt lat="50.781873017549515" lon="4.443782977759838">
        <ele>130.40000000000001</ele>
        <time>1970-01-01T04:30:04Z</time>
      </trkpt>
      <trkpt lat="50.782533008605242" lon="4.445897983387113">
        <ele>130.69999999999999</ele>
        <time>1970-01-01T04:30:32Z</time>
      </trkpt>
      <trkpt lat="50.782740041613579" lon="4.447277979925275">
        <ele>128</ele>
        <time>1970-01-01T04:30:46Z</time>
      </trkpt>
      <trkpt lat="50.782755967229605" lon="4.448333010077477">
        <ele>125.7</ele>
        <time>1970-01-01T04:30:56Z</time>
      </trkpt>
      <trkpt lat="50.782958976924419" lon="4.449606975540519">
        <ele>122.90000000000001</ele>
        <time>1970-01-01T04:31:08Z</time>
      </trkpt>
      <trkpt lat="50.782910026609898" lon="4.450035039335489">
        <ele>122.2</ele>
        <time>1970-01-01T04:31:13Z</time>
      </trkpt>
      <trkpt lat="50.782717997208238" lon="4.450808018445969">
        <ele>121.90000000000001</ele>
        <time>1970-01-01T04:31:23Z</time>
      </trkpt>
      <trkpt lat="50.782730989158154" lon="4.45094003342092">
        <ele>122.09999999999999</ele>
        <time>1970-01-01T04:31:24Z</time>
      </trkpt>
      <trkpt lat="50.782655971124768" lon="4.451180007308722">
        <ele>122.59999999999999</ele>
        <time>1970-01-01T04:31:29Z</time>
      </trkpt>
      <trkpt lat="50.782209970057011" lon="4.450233019888401">
        <ele>117.59999999999999</ele>
        <time>1970-01-01T04:31:44Z</time>
      </trkpt>
      <trkpt lat="50.781845021992922" lon="4.449074976146221">
        <ele>114.09999999999999</ele>
        <time>1970-01-01T04:31:54Z</time>
      </trkpt>
      <trkpt lat="50.781745025888085" lon="4.448880013078451">
        <ele>114.09999999999999</ele>
        <time>1970-01-01T04:31:56Z</time>
      </trkpt>
      <trkpt lat="50.781585015356541" lon="4.448237959295511">
        <ele>114.8</ele>
        <time>1970-01-01T04:32:03Z</time>
      </trkpt>
      <trkpt lat="50.781377982348204" lon="4.447847027331591">
        <ele>116.59999999999999</ele>
        <time>1970-01-01T04:32:09Z</time>
      </trkpt>
      <trkpt lat="50.781148988753557" lon="4.447204973548651">
        <ele>121</ele>
        <time>1970-01-01T04:32:27Z</time>
      </trkpt>
      <trkpt lat="50.780845982953906" lon="4.446541965007782">
        <ele>124.7</ele>
        <time>1970-01-01T04:32:44Z</time>
      </trkpt>
      <trkpt lat="50.780738024041057" lon="4.446487985551357">
        <ele>125</ele>
        <time>1970-01-01T04:32:47Z</time>
      </trkpt>
      <trkpt lat="50.780620006844401" lon="4.446572978049517">
        <ele>125.3</ele>
        <time>1970-01-01T04:32:51Z</time>
      </trkpt>
      <trkpt lat="50.780113991349936" lon="4.4473319593817">
        <ele>123.59999999999999</ele>
        <time>1970-01-01T04:33:09Z</time>
      </trkpt>
      <trkpt lat="50.779475038871169" lon="4.448582036420703">
        <ele>118.59999999999999</ele>
        <time>1970-01-01T04:33:27Z</time>
      </trkpt>
      <trkpt lat="50.779174966737628" lon="4.448987971991301">
        <ele>116.40000000000001</ele>
        <time>1970-01-01T04:33:36Z</time>
      </trkpt>
      <trkpt lat="50.779035994783044" lon="4.449040023609996">
        <ele>115.7</ele>
        <time>1970-01-01T04:33:55Z</time>
      </trkpt>
      <trkpt lat="50.779086034744978" lon="4.448965005576611">
        <ele>115.59999999999999</ele>
        <time>1970-01-01T04:34:12Z</time>
      </trkpt>
      <trkpt lat="50.77907002530992" lon="4.449131973087788">
        <ele>115.3</ele>
        <time>1970-01-01T04:34:22Z</time>
      </trkpt>
      <trkpt lat="50.779013028368354" lon="4.449207996949554">
        <ele>115</ele>
        <time>1970-01-01T04:34:33Z</time>
      </trkpt>
      <trkpt lat="50.778802977874875" lon="4.450563015416265">
        <ele>110.90000000000001</ele>
        <time>1970-01-01T04:34:47Z</time>
      </trkpt>
      <trkpt lat="50.778566021472216" lon="4.450605008751154">
        <ele>110.8</ele>
        <time>1970-01-01T04:34:51Z</time>
      </trkpt>
      <trkpt lat="50.777735039591789" lon="4.450003020465374">
        <ele>113.7</ele>
        <time>1970-01-01T04:35:13Z</time>
      </trkpt>
      <trkpt lat="50.777316028252244" lon="4.449881985783577">
        <ele>114.2</ele>
        <time>1970-01-01T04:35:21Z</time>
      </trkpt>
      <trkpt lat="50.776977986097336" lon="4.449939988553524">
        <ele>114</ele>
        <time>1970-01-01T04:35:28Z</time>
      </trkpt>
      <trkpt lat="50.776672968640924" lon="4.449727004393935">
        <ele>113.2</ele>
        <time>1970-01-01T04:35:35Z</time>
      </trkpt>
      <trkpt lat="50.776400975883007" lon="4.449402038007975">
        <ele>112.59999999999999</ele>
        <time>1970-01-01T04:35:40Z</time>
      </trkpt>
      <trkpt lat="50.775586003437638" lon="4.44898696616292">
        <ele>110.3</ele>
        <time>1970-01-01T04:35:52Z</time>
      </trkpt>
      <trkpt lat="50.775119969621301" lon="4.44862000644207">
        <ele>107.90000000000001</ele>
        <time>1970-01-01T04:35:59Z</time>
      </trkpt>
      <trkpt lat="50.774732977151871" lon="4.448477011173964">
        <ele>105.7</ele>
        <time>1970-01-01T04:36:04Z</time>
      </trkpt>
      <trkpt lat="50.774470958858728" lon="4.448471982032061">
        <ele>104.40000000000001</ele>
        <time>1970-01-01T04:36:07Z</time>
      </trkpt>
      <trkpt lat="50.774025963619351" lon="4.448808012530208">
        <ele>101.59999999999999</ele>
        <time>1970-01-01T04:36:13Z</time>
      </trkpt>
      <trkpt lat="50.773927979171276" lon="4.448817986994982">
        <ele>101</ele>
        <time>1970-01-01T04:36:15Z</time>
      </trkpt>
      <trkpt lat="50.773769980296493" lon="4.448704998940229">
        <ele>99.799999999999997</ele>
        <time>1970-01-01T04:36:18Z</time>
      </trkpt>
      <trkpt lat="50.773603012785316" lon="4.448689995333552">
        <ele>98.099999999999994</ele>
        <time>1970-01-01T04:36:21Z</time>
      </trkpt>
      <trkpt lat="50.773390028625727" lon="4.448840031400323">
        <ele>94.799999999999997</ele>
        <time>1970-01-01T04:36:25Z</time>
      </trkpt>
      <trkpt lat="50.772036015987396" lon="4.450438041239977">
        <ele>84.900000000000006</ele>
        <time>1970-01-01T04:36:44Z</time>
      </trkpt>
      <trkpt lat="50.771605018526316" lon="4.451257959008217">
        <ele>84.400000000000006</ele>
        <time>1970-01-01T04:36:54Z</time>
      </trkpt>
      <trkpt lat="50.771565958857536" lon="4.451647968962789">
        <ele>83.599999999999994</ele>
        <time>1970-01-01T04:36:58Z</time>
      </trkpt>
      <trkpt lat="50.771683976054192" lon="4.452520022168756">
        <ele>82.299999999999997</ele>
        <time>1970-01-01T04:37:07Z</time>
      </trkpt>
      <trkpt lat="50.771570987999439" lon="4.452708028256893">
        <ele>82.200000000000003</ele>
        <time>1970-01-01T04:37:10Z</time>
      </trkpt>
      <trkpt lat="50.770910996943712" lon="4.453099966049194">
        <ele>84.700000000000003</ele>
        <time>1970-01-01T04:37:33Z</time>
      </trkpt>
      <trkpt lat="50.770956007763743" lon="4.453127039596438">
        <ele>85.299999999999997</ele>
        <time>1970-01-01T04:37:37Z</time>
      </trkpt>
      <trkpt lat="50.770849976688623" lon="4.453068030998111">
        <ele>86.799999999999997</ele>
        <time>1970-01-01T04:38:04Z</time>
      </trkpt>
      <trkpt lat="50.770690971985459" lon="4.452844988554716">
        <ele>89.5</ele>
        <time>1970-01-01T04:38:13Z</time>
      </trkpt>
      <trkpt lat="50.770611008629203" lon="4.452532008290291">
        <ele>91.5</ele>
        <time>1970-01-01T04:38:25Z</time>
      </trkpt>
      <trkpt lat="50.770333986729383" lon="4.452148033306003">
        <ele>93.299999999999997</ele>
        <time>1970-01-01T04:38:36Z</time>
      </trkpt>
      <trkpt lat="50.770017988979816" lon="4.45182298310101">
        <ele>94.700000000000003</ele>
        <time>1970-01-01T04:38:52Z</time>
      </trkpt>
      <trkpt lat="50.769654968753457" lon="4.451213032007217">
        <ele>96.200000000000003</ele>
        <time>1970-01-01T04:39:12Z</time>
      </trkpt>
      <trkpt lat="50.76955103315413" lon="4.451165003702045">
        <ele>96.400000000000006</ele>
        <time>1970-01-01T04:39:18Z</time>
      </trkpt>
      <trkpt lat="50.769106037914753" lon="4.45063803344965">
        <ele>97.400000000000006</ele>
        <time>1970-01-01T04:39:45Z</time>
      </trkpt>
      <trkpt lat="50.767835006117821" lon="4.450018024072051">
        <ele>101.3</ele>
        <time>1970-01-01T04:40:46Z</time>
      </trkpt>
      <trkpt lat="50.767696034163237" lon="4.450047025457025">
        <ele>100.90000000000001</ele>
        <time>1970-01-01T04:41:47Z</time>
      </trkpt>
      <trkpt lat="50.76794296503067" lon="4.451246978715062">
        <ele>97.200000000000003</ele>
        <time>1970-01-01T04:42:02Z</time>
      </trkpt>
      <trkpt lat="50.767981018871069" lon="4.451749976724386">
        <ele>95.400000000000006</ele>
        <time>1970-01-01T04:42:07Z</time>
      </trkpt>
      <trkpt lat="50.767947994172573" lon="4.452609037980437">
        <ele>91.599999999999994</ele>
        <time>1970-01-01T04:42:18Z</time>
      </trkpt>
      <trkpt lat="50.767999961972237" lon="4.452929981052876">
        <ele>89.200000000000003</ele>
        <time>1970-01-01T04:42:54Z</time>
      </trkpt>
      <trkpt lat="50.768021000549197" lon="4.453638000413775">
        <ele>84.099999999999994</ele>
        <time>1970-01-01T04:43:00Z</time>
      </trkpt>
      <trkpt lat="50.767960986122489" lon="4.454335039481521">
        <ele>81.5</ele>
        <time>1970-01-01T04:43:06Z</time>
      </trkpt>
      <trkpt lat="50.767972972244024" lon="4.454479962587357">
        <ele>80.799999999999997</ele>
        <time>1970-01-01T04:43:26Z</time>
      </trkpt>
      <trkpt lat="50.767548009753227" lon="4.454650031402707">
        <ele>80.400000000000006</ele>
        <time>1970-01-01T04:43:56Z</time>
      </trkpt>
    </trkseg>
  </trk>

</gpx>